<?xml version="1.0" encoding="UTF-8" standalone="no" ?>
<gpx xmlns="http://www.topografix.com/GPX/1/1" xmlns:xsi="http://www.w3.org/2001/XMLSchema-instance" xsi:schemaLocation="http://www.topografix.com/GPX/1/1 http://www.topografix.com/GPX/1/1/gpx.xsd" version="1.1" creator="VisuGPX - https://www.visugpx.com">
  <metadata>
    <name>Sortie à vélo de route 200920</name>
  </metadata>
  <trk>
    <name><![CDATA[Sortie à vélo de route 200920]]></name>
    <trkseg>
      <trkpt lat="48.32018" lon="7.34934">
        <ele>230.57413</ele>
        <time>2020-09-18T20:01:55.837Z</time>
      </trkpt>
      <trkpt lat="48.32018" lon="7.34934">
        <ele>230.57413</ele>
        <time>2020-09-18T20:01:55.861Z</time>
      </trkpt>
      <trkpt lat="48.32021" lon="7.34927">
        <ele>230.57413</ele>
        <time>2020-09-18T20:01:56.823Z</time>
      </trkpt>
      <trkpt lat="48.32051" lon="7.34862">
        <ele>230.57413</ele>
        <time>2020-09-18T20:02:07.139Z</time>
      </trkpt>
      <trkpt lat="48.32063" lon="7.34831">
        <ele>230.57413</ele>
        <time>2020-09-18T20:02:11.970Z</time>
      </trkpt>
      <trkpt lat="48.32064" lon="7.34827">
        <ele>230.57413</ele>
        <time>2020-09-18T20:02:12.506Z</time>
      </trkpt>
      <trkpt lat="48.32079" lon="7.3479">
        <ele>230.68584</ele>
        <time>2020-09-18T20:02:18.187Z</time>
      </trkpt>
      <trkpt lat="48.32094" lon="7.34755">
        <ele>230.817759</ele>
        <time>2020-09-18T20:02:24.129Z</time>
      </trkpt>
      <trkpt lat="48.32098" lon="7.34758">
        <ele>230.837548</ele>
        <time>2020-09-18T20:02:24.979Z</time>
      </trkpt>
      <trkpt lat="48.32109" lon="7.34752">
        <ele>230.891764</ele>
        <time>2020-09-18T20:02:27.506Z</time>
      </trkpt>
      <trkpt lat="48.32106" lon="7.34735">
        <ele>230.946224</ele>
        <time>2020-09-18T20:02:30.103Z</time>
      </trkpt>
      <trkpt lat="48.32102" lon="7.34733">
        <ele>230.965727</ele>
        <time>2020-09-18T20:02:30.990Z</time>
      </trkpt>
      <trkpt lat="48.32132" lon="7.34647">
        <ele>231.268998</ele>
        <time>2020-09-18T20:02:45.661Z</time>
      </trkpt>
      <trkpt lat="48.3214" lon="7.34617">
        <ele>231.36961</ele>
        <time>2020-09-18T20:02:50.490Z</time>
      </trkpt>
      <trkpt lat="48.32138" lon="7.34615">
        <ele>231.381146</ele>
        <time>2020-09-18T20:02:51.162Z</time>
      </trkpt>
      <trkpt lat="48.32145" lon="7.34603">
        <ele>231.440752</ele>
        <time>2020-09-18T20:02:53.281Z</time>
      </trkpt>
      <trkpt lat="48.3216" lon="7.34567">
        <ele>231.697125</ele>
        <time>2020-09-18T20:02:58.504Z</time>
      </trkpt>
      <trkpt lat="48.32168" lon="7.34541">
        <ele>231.87258</ele>
        <time>2020-09-18T20:03:02.283Z</time>
      </trkpt>
      <trkpt lat="48.32205" lon="7.34439">
        <ele>232.57577</ele>
        <time>2020-09-18T20:03:17.113Z</time>
      </trkpt>
      <trkpt lat="48.32381" lon="7.33951">
        <ele>235.509426</ele>
        <time>2020-09-18T20:04:22.336Z</time>
      </trkpt>
      <trkpt lat="48.32394" lon="7.33908">
        <ele>235.779701</ele>
        <time>2020-09-18T20:04:28.285Z</time>
      </trkpt>
      <trkpt lat="48.32405" lon="7.33892">
        <ele>235.947441</ele>
        <time>2020-09-18T20:04:31.090Z</time>
      </trkpt>
      <trkpt lat="48.32431" lon="7.33814">
        <ele>237.046291</ele>
        <time>2020-09-18T20:04:43.471Z</time>
      </trkpt>
      <trkpt lat="48.32435" lon="7.33799">
        <ele>237.248922</ele>
        <time>2020-09-18T20:04:46.177Z</time>
      </trkpt>
      <trkpt lat="48.3245" lon="7.33728">
        <ele>238.183194</ele>
        <time>2020-09-18T20:04:57.582Z</time>
      </trkpt>
      <trkpt lat="48.32461" lon="7.33693">
        <ele>238.671053</ele>
        <time>2020-09-18T20:05:03.797Z</time>
      </trkpt>
      <trkpt lat="48.32476" lon="7.3367">
        <ele>239.075133</ele>
        <time>2020-09-18T20:05:08.177Z</time>
      </trkpt>
      <trkpt lat="48.32484" lon="7.3366">
        <ele>239.270609</ele>
        <time>2020-09-18T20:05:10.984Z</time>
      </trkpt>
      <trkpt lat="48.32489" lon="7.33654">
        <ele>239.421193</ele>
        <time>2020-09-18T20:05:12.762Z</time>
      </trkpt>
      <trkpt lat="48.32496" lon="7.33648">
        <ele>239.614635</ele>
        <time>2020-09-18T20:05:14.438Z</time>
      </trkpt>
      <trkpt lat="48.32517" lon="7.33633">
        <ele>240.181009</ele>
        <time>2020-09-18T20:05:20.285Z</time>
      </trkpt>
      <trkpt lat="48.32536" lon="7.33621">
        <ele>240.6824</ele>
        <time>2020-09-18T20:05:25.142Z</time>
      </trkpt>
      <trkpt lat="48.32541" lon="7.33618">
        <ele>240.802778</ele>
        <time>2020-09-18T20:05:26.417Z</time>
      </trkpt>
      <trkpt lat="48.32565" lon="7.33603">
        <ele>241.419162</ele>
        <time>2020-09-18T20:05:33.046Z</time>
      </trkpt>
      <trkpt lat="48.32575" lon="7.33597">
        <ele>241.685077</ele>
        <time>2020-09-18T20:05:35.632Z</time>
      </trkpt>
      <trkpt lat="48.32586" lon="7.33593">
        <ele>241.966142</ele>
        <time>2020-09-18T20:05:39.075Z</time>
      </trkpt>
      <trkpt lat="48.32612" lon="7.33584">
        <ele>242.592668</ele>
        <time>2020-09-18T20:05:45.095Z</time>
      </trkpt>
      <trkpt lat="48.32692" lon="7.33557">
        <ele>244.467435</ele>
        <time>2020-09-18T20:06:05.293Z</time>
      </trkpt>
      <trkpt lat="48.32755" lon="7.33534">
        <ele>245.848908</ele>
        <time>2020-09-18T20:06:20.249Z</time>
      </trkpt>
      <trkpt lat="48.32764" lon="7.33529">
        <ele>246.065061</ele>
        <time>2020-09-18T20:06:22.417Z</time>
      </trkpt>
      <trkpt lat="48.32769" lon="7.33525">
        <ele>246.179172</ele>
        <time>2020-09-18T20:06:23.953Z</time>
      </trkpt>
      <trkpt lat="48.32774" lon="7.33518">
        <ele>246.331597</ele>
        <time>2020-09-18T20:06:25.600Z</time>
      </trkpt>
      <trkpt lat="48.32781" lon="7.33502">
        <ele>246.602906</ele>
        <time>2020-09-18T20:06:28.216Z</time>
      </trkpt>
      <trkpt lat="48.32785" lon="7.33491">
        <ele>246.783183</ele>
        <time>2020-09-18T20:06:29.996Z</time>
      </trkpt>
      <trkpt lat="48.32797" lon="7.33453">
        <ele>247.37544</ele>
        <time>2020-09-18T20:06:36.230Z</time>
      </trkpt>
      <trkpt lat="48.32813" lon="7.334">
        <ele>248.188703</ele>
        <time>2020-09-18T20:06:45.627Z</time>
      </trkpt>
      <trkpt lat="48.32856" lon="7.33261">
        <ele>250.306464</ele>
        <time>2020-09-18T20:07:09.382Z</time>
      </trkpt>
      <trkpt lat="48.32861" lon="7.33249">
        <ele>250.508354</ele>
        <time>2020-09-18T20:07:11.545Z</time>
      </trkpt>
      <trkpt lat="48.32868" lon="7.33237">
        <ele>250.73121</ele>
        <time>2020-09-18T20:07:14.195Z</time>
      </trkpt>
      <trkpt lat="48.32927" lon="7.3316">
        <ele>252.059483</ele>
        <time>2020-09-18T20:07:31.617Z</time>
      </trkpt>
      <trkpt lat="48.33013" lon="7.33123">
        <ele>253.423768</ele>
        <time>2020-09-18T20:07:50.998Z</time>
      </trkpt>
      <trkpt lat="48.33042" lon="7.33111">
        <ele>253.887595</ele>
        <time>2020-09-18T20:07:56.881Z</time>
      </trkpt>
      <trkpt lat="48.33065" lon="7.33103">
        <ele>253.930445</ele>
        <time>2020-09-18T20:08:00.919Z</time>
      </trkpt>
      <trkpt lat="48.33112" lon="7.3308">
        <ele>253.786944</ele>
        <time>2020-09-18T20:08:08.642Z</time>
      </trkpt>
      <trkpt lat="48.33115" lon="7.33076">
        <ele>253.775989</ele>
        <time>2020-09-18T20:08:09.190Z</time>
      </trkpt>
      <trkpt lat="48.33133" lon="7.3307">
        <ele>253.723497</ele>
        <time>2020-09-18T20:08:11.632Z</time>
      </trkpt>
      <trkpt lat="48.3315" lon="7.33062">
        <ele>253.672945</ele>
        <time>2020-09-18T20:08:13.884Z</time>
      </trkpt>
      <trkpt lat="48.33167" lon="7.33054">
        <ele>253.621261</ele>
        <time>2020-09-18T20:08:16.216Z</time>
      </trkpt>
      <trkpt lat="48.33183" lon="7.33046">
        <ele>253.574152</ele>
        <time>2020-09-18T20:08:18.258Z</time>
      </trkpt>
      <trkpt lat="48.33193" lon="7.33038">
        <ele>253.540962</ele>
        <time>2020-09-18T20:08:19.827Z</time>
      </trkpt>
      <trkpt lat="48.33211" lon="7.33028">
        <ele>253.487439</ele>
        <time>2020-09-18T20:08:21.944Z</time>
      </trkpt>
      <trkpt lat="48.33255" lon="7.32989">
        <ele>253.350754</ele>
        <time>2020-09-18T20:08:28.325Z</time>
      </trkpt>
      <trkpt lat="48.33266" lon="7.32975">
        <ele>253.312509</ele>
        <time>2020-09-18T20:08:29.950Z</time>
      </trkpt>
      <trkpt lat="48.33278" lon="7.32959">
        <ele>253.271969</ele>
        <time>2020-09-18T20:08:31.975Z</time>
      </trkpt>
      <trkpt lat="48.33359" lon="7.32821">
        <ele>253.180277</ele>
        <time>2020-09-18T20:08:50.654Z</time>
      </trkpt>
      <trkpt lat="48.33377" lon="7.32796">
        <ele>253.453775</ele>
        <time>2020-09-18T20:08:55.438Z</time>
      </trkpt>
      <trkpt lat="48.33394" lon="7.32777">
        <ele>253.68226</ele>
        <time>2020-09-18T20:09:00.058Z</time>
      </trkpt>
      <trkpt lat="48.33406" lon="7.32765">
        <ele>253.841725</ele>
        <time>2020-09-18T20:09:02.922Z</time>
      </trkpt>
      <trkpt lat="48.33419" lon="7.32753">
        <ele>254.017145</ele>
        <time>2020-09-18T20:09:06.475Z</time>
      </trkpt>
      <trkpt lat="48.33431" lon="7.32744">
        <ele>254.167356</ele>
        <time>2020-09-18T20:09:09.607Z</time>
      </trkpt>
      <trkpt lat="48.33468" lon="7.32722">
        <ele>254.602204</ele>
        <time>2020-09-18T20:09:17.580Z</time>
      </trkpt>
      <trkpt lat="48.33569" lon="7.32677">
        <ele>254.621313</ele>
        <time>2020-09-18T20:09:36.633Z</time>
      </trkpt>
      <trkpt lat="48.33581" lon="7.32667">
        <ele>254.550721</ele>
        <time>2020-09-18T20:09:38.527Z</time>
      </trkpt>
      <trkpt lat="48.33597" lon="7.32655">
        <ele>254.457737</ele>
        <time>2020-09-18T20:09:40.584Z</time>
      </trkpt>
      <trkpt lat="48.33635" lon="7.32599">
        <ele>254.184693</ele>
        <time>2020-09-18T20:09:46.802Z</time>
      </trkpt>
      <trkpt lat="48.33648" lon="7.3256">
        <ele>253.992703</ele>
        <time>2020-09-18T20:09:50.017Z</time>
      </trkpt>
      <trkpt lat="48.33655" lon="7.32518">
        <ele>253.597956</ele>
        <time>2020-09-18T20:09:53.255Z</time>
      </trkpt>
      <trkpt lat="48.33659" lon="7.32505">
        <ele>253.467771</ele>
        <time>2020-09-18T20:09:54.278Z</time>
      </trkpt>
      <trkpt lat="48.33662" lon="7.32503">
        <ele>253.424669</ele>
        <time>2020-09-18T20:09:54.747Z</time>
      </trkpt>
      <trkpt lat="48.33665" lon="7.32501">
        <ele>253.383546</ele>
        <time>2020-09-18T20:09:55.165Z</time>
      </trkpt>
      <trkpt lat="48.33667" lon="7.32497">
        <ele>253.334749</ele>
        <time>2020-09-18T20:09:55.557Z</time>
      </trkpt>
      <trkpt lat="48.33669" lon="7.32493">
        <ele>253.285689</ele>
        <time>2020-09-18T20:09:55.946Z</time>
      </trkpt>
      <trkpt lat="48.3367" lon="7.32487">
        <ele>253.231073</ele>
        <time>2020-09-18T20:09:56.355Z</time>
      </trkpt>
      <trkpt lat="48.33671" lon="7.32481">
        <ele>253.176626</ele>
        <time>2020-09-18T20:09:56.776Z</time>
      </trkpt>
      <trkpt lat="48.3367" lon="7.32475">
        <ele>253.12294</ele>
        <time>2020-09-18T20:09:57.201Z</time>
      </trkpt>
      <trkpt lat="48.33675" lon="7.32458">
        <ele>252.955553</ele>
        <time>2020-09-18T20:09:58.485Z</time>
      </trkpt>
      <trkpt lat="48.33691" lon="7.32392">
        <ele>252.320631</ele>
        <time>2020-09-18T20:10:03.997Z</time>
      </trkpt>
      <trkpt lat="48.33694" lon="7.32372">
        <ele>252.128903</ele>
        <time>2020-09-18T20:10:05.680Z</time>
      </trkpt>
      <trkpt lat="48.33708" lon="7.32326">
        <ele>251.667735</ele>
        <time>2020-09-18T20:10:09.806Z</time>
      </trkpt>
      <trkpt lat="48.33757" lon="7.32206">
        <ele>252.520945</ele>
        <time>2020-09-18T20:10:24.347Z</time>
      </trkpt>
      <trkpt lat="48.33782" lon="7.32156">
        <ele>252.948136</ele>
        <time>2020-09-18T20:10:32.761Z</time>
      </trkpt>
      <trkpt lat="48.33819" lon="7.32091">
        <ele>253.642282</ele>
        <time>2020-09-18T20:10:46.964Z</time>
      </trkpt>
      <trkpt lat="48.33835" lon="7.32072">
        <ele>254.145791</ele>
        <time>2020-09-18T20:10:52.480Z</time>
      </trkpt>
      <trkpt lat="48.33858" lon="7.32039">
        <ele>254.932553</ele>
        <time>2020-09-18T20:11:01.088Z</time>
      </trkpt>
      <trkpt lat="48.33871" lon="7.32016">
        <ele>255.421307</ele>
        <time>2020-09-18T20:11:06.114Z</time>
      </trkpt>
      <trkpt lat="48.33887" lon="7.31979">
        <ele>256.145994</ele>
        <time>2020-09-18T20:11:13.764Z</time>
      </trkpt>
      <trkpt lat="48.33895" lon="7.31952">
        <ele>256.622041</ele>
        <time>2020-09-18T20:11:18.962Z</time>
      </trkpt>
      <trkpt lat="48.33923" lon="7.31901">
        <ele>257.707154</ele>
        <time>2020-09-18T20:11:29.383Z</time>
      </trkpt>
      <trkpt lat="48.3394" lon="7.31869">
        <ele>257.97862</ele>
        <time>2020-09-18T20:11:35.469Z</time>
      </trkpt>
      <trkpt lat="48.34001" lon="7.31757">
        <ele>258.440096</ele>
        <time>2020-09-18T20:11:52.832Z</time>
      </trkpt>
      <trkpt lat="48.34025" lon="7.31692">
        <ele>258.676942</ele>
        <time>2020-09-18T20:11:59.317Z</time>
      </trkpt>
      <trkpt lat="48.3404" lon="7.31603">
        <ele>258.416415</ele>
        <time>2020-09-18T20:12:06.710Z</time>
      </trkpt>
      <trkpt lat="48.34042" lon="7.31562">
        <ele>258.221116</ele>
        <time>2020-09-18T20:12:10.158Z</time>
      </trkpt>
      <trkpt lat="48.3405" lon="7.31402">
        <ele>257.476563</ele>
        <time>2020-09-18T20:12:24.081Z</time>
      </trkpt>
      <trkpt lat="48.34053" lon="7.31378">
        <ele>257.487298</ele>
        <time>2020-09-18T20:12:26.300Z</time>
      </trkpt>
      <trkpt lat="48.34062" lon="7.31302">
        <ele>257.521339</ele>
        <time>2020-09-18T20:12:33.167Z</time>
      </trkpt>
      <trkpt lat="48.34071" lon="7.31234">
        <ele>257.551581</ele>
        <time>2020-09-18T20:12:40.093Z</time>
      </trkpt>
      <trkpt lat="48.34084" lon="7.31124">
        <ele>257.720792</ele>
        <time>2020-09-18T20:12:52.830Z</time>
      </trkpt>
      <trkpt lat="48.34086" lon="7.31112">
        <ele>257.832232</ele>
        <time>2020-09-18T20:12:53.960Z</time>
      </trkpt>
      <trkpt lat="48.34095" lon="7.31081">
        <ele>258.139471</ele>
        <time>2020-09-18T20:12:58.203Z</time>
      </trkpt>
      <trkpt lat="48.34098" lon="7.31082">
        <ele>258.177148</ele>
        <time>2020-09-18T20:12:58.620Z</time>
      </trkpt>
      <trkpt lat="48.34103" lon="7.31079">
        <ele>258.254616</ele>
        <time>2020-09-18T20:12:59.456Z</time>
      </trkpt>
      <trkpt lat="48.34105" lon="7.31076">
        <ele>258.293915</ele>
        <time>2020-09-18T20:12:59.832Z</time>
      </trkpt>
      <trkpt lat="48.34106" lon="7.31072">
        <ele>258.330686</ele>
        <time>2020-09-18T20:13:00.249Z</time>
      </trkpt>
      <trkpt lat="48.34103" lon="7.3106">
        <ele>258.448187</ele>
        <time>2020-09-18T20:13:01.871Z</time>
      </trkpt>
      <trkpt lat="48.34102" lon="7.31058">
        <ele>258.474198</ele>
        <time>2020-09-18T20:13:02.465Z</time>
      </trkpt>
      <trkpt lat="48.34106" lon="7.31042">
        <ele>258.631053</ele>
        <time>2020-09-18T20:13:04.920Z</time>
      </trkpt>
      <trkpt lat="48.34151" lon="7.30909">
        <ele>260.003885</ele>
        <time>2020-09-18T20:13:26.471Z</time>
      </trkpt>
      <trkpt lat="48.3417" lon="7.30876">
        <ele>260.512052</ele>
        <time>2020-09-18T20:13:33.070Z</time>
      </trkpt>
      <trkpt lat="48.34173" lon="7.30873">
        <ele>260.577746</ele>
        <time>2020-09-18T20:13:34.285Z</time>
      </trkpt>
      <trkpt lat="48.34186" lon="7.30859">
        <ele>260.865529</ele>
        <time>2020-09-18T20:13:38.314Z</time>
      </trkpt>
      <trkpt lat="48.34198" lon="7.30848">
        <ele>261.113604</ele>
        <time>2020-09-18T20:13:41.077Z</time>
      </trkpt>
      <trkpt lat="48.34204" lon="7.30842">
        <ele>261.243508</ele>
        <time>2020-09-18T20:13:42.951Z</time>
      </trkpt>
      <trkpt lat="48.3421" lon="7.30836">
        <ele>261.370562</ele>
        <time>2020-09-18T20:13:44.346Z</time>
      </trkpt>
      <trkpt lat="48.34216" lon="7.3083">
        <ele>261.504118</ele>
        <time>2020-09-18T20:13:46.108Z</time>
      </trkpt>
      <trkpt lat="48.34242" lon="7.30805">
        <ele>262.064782</ele>
        <time>2020-09-18T20:13:52.737Z</time>
      </trkpt>
      <trkpt lat="48.34249" lon="7.30798">
        <ele>262.210204</ele>
        <time>2020-09-18T20:13:54.518Z</time>
      </trkpt>
      <trkpt lat="48.34256" lon="7.30789">
        <ele>262.376411</ele>
        <time>2020-09-18T20:13:56.311Z</time>
      </trkpt>
      <trkpt lat="48.34261" lon="7.30782">
        <ele>262.502362</ele>
        <time>2020-09-18T20:13:57.936Z</time>
      </trkpt>
      <trkpt lat="48.34281" lon="7.30753">
        <ele>262.995219</ele>
        <time>2020-09-18T20:14:03.742Z</time>
      </trkpt>
      <trkpt lat="48.34285" lon="7.30747">
        <ele>263.102409</ele>
        <time>2020-09-18T20:14:04.874Z</time>
      </trkpt>
      <trkpt lat="48.34295" lon="7.30731">
        <ele>263.369951</ele>
        <time>2020-09-18T20:14:08.299Z</time>
      </trkpt>
      <trkpt lat="48.34303" lon="7.30718">
        <ele>263.608054</ele>
        <time>2020-09-18T20:14:11.040Z</time>
      </trkpt>
      <trkpt lat="48.34361" lon="7.30618">
        <ele>265.349141</ele>
        <time>2020-09-18T20:14:30.277Z</time>
      </trkpt>
      <trkpt lat="48.34388" lon="7.30566">
        <ele>266.22741</ele>
        <time>2020-09-18T20:14:40.168Z</time>
      </trkpt>
      <trkpt lat="48.34399" lon="7.30544">
        <ele>266.577335</ele>
        <time>2020-09-18T20:14:45.020Z</time>
      </trkpt>
      <trkpt lat="48.34415" lon="7.30511">
        <ele>267.17244</ele>
        <time>2020-09-18T20:14:50.893Z</time>
      </trkpt>
      <trkpt lat="48.34419" lon="7.30503">
        <ele>267.342289</ele>
        <time>2020-09-18T20:14:53.296Z</time>
      </trkpt>
      <trkpt lat="48.34424" lon="7.30501">
        <ele>267.474883</ele>
        <time>2020-09-18T20:14:54.584Z</time>
      </trkpt>
      <trkpt lat="48.34431" lon="7.30498">
        <ele>267.637592</ele>
        <time>2020-09-18T20:14:56.081Z</time>
      </trkpt>
      <trkpt lat="48.34435" lon="7.30494">
        <ele>267.775053</ele>
        <time>2020-09-18T20:14:57.211Z</time>
      </trkpt>
      <trkpt lat="48.34446" lon="7.3048">
        <ele>268.114976</ele>
        <time>2020-09-18T20:15:00.439Z</time>
      </trkpt>
      <trkpt lat="48.3445" lon="7.30475">
        <ele>268.255532</ele>
        <time>2020-09-18T20:15:02.617Z</time>
      </trkpt>
      <trkpt lat="48.34584" lon="7.30291">
        <ele>272.305795</ele>
        <time>2020-09-18T20:15:47.648Z</time>
      </trkpt>
      <trkpt lat="48.34609" lon="7.30243">
        <ele>272.976349</ele>
        <time>2020-09-18T20:15:56.167Z</time>
      </trkpt>
      <trkpt lat="48.34674" lon="7.30045">
        <ele>274.915364</ele>
        <time>2020-09-18T20:16:24.602Z</time>
      </trkpt>
      <trkpt lat="48.347" lon="7.29969">
        <ele>275.417095</ele>
        <time>2020-09-18T20:16:34.512Z</time>
      </trkpt>
      <trkpt lat="48.34727" lon="7.29889">
        <ele>275.945114</ele>
        <time>2020-09-18T20:16:45.244Z</time>
      </trkpt>
      <trkpt lat="48.34733" lon="7.29872">
        <ele>276.0944</ele>
        <time>2020-09-18T20:16:47.635Z</time>
      </trkpt>
      <trkpt lat="48.34755" lon="7.29812">
        <ele>276.611218</ele>
        <time>2020-09-18T20:16:55.915Z</time>
      </trkpt>
      <trkpt lat="48.34779" lon="7.29736">
        <ele>277.250137</ele>
        <time>2020-09-18T20:17:06.378Z</time>
      </trkpt>
      <trkpt lat="48.34844" lon="7.29432">
        <ele>279.898749</ele>
        <time>2020-09-18T20:17:50.650Z</time>
      </trkpt>
      <trkpt lat="48.34852" lon="7.29406">
        <ele>280.145647</ele>
        <time>2020-09-18T20:17:54.087Z</time>
      </trkpt>
      <trkpt lat="48.34864" lon="7.29371">
        <ele>280.426988</ele>
        <time>2020-09-18T20:17:58.715Z</time>
      </trkpt>
      <trkpt lat="48.34883" lon="7.29331">
        <ele>280.68331</ele>
        <time>2020-09-18T20:18:04.326Z</time>
      </trkpt>
      <trkpt lat="48.34891" lon="7.29323">
        <ele>280.758357</ele>
        <time>2020-09-18T20:18:05.859Z</time>
      </trkpt>
      <trkpt lat="48.34897" lon="7.29317">
        <ele>280.816068</ele>
        <time>2020-09-18T20:18:07.319Z</time>
      </trkpt>
      <trkpt lat="48.34901" lon="7.29319">
        <ele>280.847053</ele>
        <time>2020-09-18T20:18:08.213Z</time>
      </trkpt>
      <trkpt lat="48.34905" lon="7.29317">
        <ele>280.878801</ele>
        <time>2020-09-18T20:18:08.797Z</time>
      </trkpt>
      <trkpt lat="48.34908" lon="7.29313">
        <ele>280.909829</ele>
        <time>2020-09-18T20:18:09.593Z</time>
      </trkpt>
      <trkpt lat="48.34909" lon="7.29308">
        <ele>280.937971</ele>
        <time>2020-09-18T20:18:10.027Z</time>
      </trkpt>
      <trkpt lat="48.34909" lon="7.29303">
        <ele>280.966452</ele>
        <time>2020-09-18T20:18:10.507Z</time>
      </trkpt>
      <trkpt lat="48.34906" lon="7.29297">
        <ele>281.001813</ele>
        <time>2020-09-18T20:18:11.142Z</time>
      </trkpt>
      <trkpt lat="48.34908" lon="7.2927">
        <ele>281.143876</ele>
        <time>2020-09-18T20:18:14.817Z</time>
      </trkpt>
      <trkpt lat="48.34912" lon="7.29256">
        <ele>281.227816</ele>
        <time>2020-09-18T20:18:16.469Z</time>
      </trkpt>
      <trkpt lat="48.34925" lon="7.29218">
        <ele>281.446779</ele>
        <time>2020-09-18T20:18:21.756Z</time>
      </trkpt>
      <trkpt lat="48.34948" lon="7.29149">
        <ele>281.957201</ele>
        <time>2020-09-18T20:18:31.031Z</time>
      </trkpt>
      <trkpt lat="48.34952" lon="7.29139">
        <ele>282.068784</ele>
        <time>2020-09-18T20:18:32.617Z</time>
      </trkpt>
      <trkpt lat="48.34977" lon="7.29066">
        <ele>282.907005</ele>
        <time>2020-09-18T20:18:42.847Z</time>
      </trkpt>
      <trkpt lat="48.35008" lon="7.2897">
        <ele>283.987749</ele>
        <time>2020-09-18T20:18:58.731Z</time>
      </trkpt>
      <trkpt lat="48.35024" lon="7.28925">
        <ele>284.517733</ele>
        <time>2020-09-18T20:19:06.751Z</time>
      </trkpt>
      <trkpt lat="48.35048" lon="7.28867">
        <ele>285.247577</ele>
        <time>2020-09-18T20:19:17.099Z</time>
      </trkpt>
      <trkpt lat="48.35054" lon="7.28847">
        <ele>285.490263</ele>
        <time>2020-09-18T20:19:20.561Z</time>
      </trkpt>
      <trkpt lat="48.35058" lon="7.28828">
        <ele>285.695696</ele>
        <time>2020-09-18T20:19:23.358Z</time>
      </trkpt>
      <trkpt lat="48.35066" lon="7.28784">
        <ele>286.187188</ele>
        <time>2020-09-18T20:19:29.918Z</time>
      </trkpt>
      <trkpt lat="48.35073" lon="7.28728">
        <ele>286.800295</ele>
        <time>2020-09-18T20:19:37.707Z</time>
      </trkpt>
      <trkpt lat="48.35116" lon="7.28364">
        <ele>290.063887</ele>
        <time>2020-09-18T20:20:25.504Z</time>
      </trkpt>
      <trkpt lat="48.35157" lon="7.28195">
        <ele>292.183588</ele>
        <time>2020-09-18T20:20:52.343Z</time>
      </trkpt>
      <trkpt lat="48.35197" lon="7.28034">
        <ele>294.041418</ele>
        <time>2020-09-18T20:21:18.432Z</time>
      </trkpt>
      <trkpt lat="48.35243" lon="7.27851">
        <ele>295.839048</ele>
        <time>2020-09-18T20:21:44.327Z</time>
      </trkpt>
      <trkpt lat="48.35247" lon="7.2783">
        <ele>295.954966</ele>
        <time>2020-09-18T20:21:47.120Z</time>
      </trkpt>
      <trkpt lat="48.35252" lon="7.2778">
        <ele>296.230736</ele>
        <time>2020-09-18T20:21:53.156Z</time>
      </trkpt>
      <trkpt lat="48.3528" lon="7.27383">
        <ele>298.186204</ele>
        <time>2020-09-18T20:22:39.312Z</time>
      </trkpt>
      <trkpt lat="48.35282" lon="7.27331">
        <ele>298.484429</ele>
        <time>2020-09-18T20:22:45.848Z</time>
      </trkpt>
      <trkpt lat="48.35286" lon="7.27293">
        <ele>298.736388</ele>
        <time>2020-09-18T20:22:50.541Z</time>
      </trkpt>
      <trkpt lat="48.35294" lon="7.27218">
        <ele>299.225488</ele>
        <time>2020-09-18T20:22:59.436Z</time>
      </trkpt>
      <trkpt lat="48.35299" lon="7.27171">
        <ele>299.529891</ele>
        <time>2020-09-18T20:23:05.560Z</time>
      </trkpt>
      <trkpt lat="48.35301" lon="7.27156">
        <ele>299.632599</ele>
        <time>2020-09-18T20:23:07.609Z</time>
      </trkpt>
      <trkpt lat="48.35315" lon="7.27055">
        <ele>300.381474</ele>
        <time>2020-09-18T20:23:21.268Z</time>
      </trkpt>
      <trkpt lat="48.35333" lon="7.26909">
        <ele>301.664523</ele>
        <time>2020-09-18T20:23:40.263Z</time>
      </trkpt>
      <trkpt lat="48.35348" lon="7.26749">
        <ele>303.075591</ele>
        <time>2020-09-18T20:24:02.901Z</time>
      </trkpt>
      <trkpt lat="48.3535" lon="7.26582">
        <ele>304.574256</ele>
        <time>2020-09-18T20:24:25.366Z</time>
      </trkpt>
      <trkpt lat="48.35343" lon="7.26492">
        <ele>305.461487</ele>
        <time>2020-09-18T20:24:36.894Z</time>
      </trkpt>
      <trkpt lat="48.35342" lon="7.26462">
        <ele>305.758586</ele>
        <time>2020-09-18T20:24:41.125Z</time>
      </trkpt>
      <trkpt lat="48.35339" lon="7.2643">
        <ele>306.087653</ele>
        <time>2020-09-18T20:24:45.456Z</time>
      </trkpt>
      <trkpt lat="48.35336" lon="7.26403">
        <ele>306.35631</ele>
        <time>2020-09-18T20:24:49.588Z</time>
      </trkpt>
      <trkpt lat="48.35333" lon="7.26382">
        <ele>306.578131</ele>
        <time>2020-09-18T20:24:52.376Z</time>
      </trkpt>
      <trkpt lat="48.35331" lon="7.26372">
        <ele>306.683058</ele>
        <time>2020-09-18T20:24:53.983Z</time>
      </trkpt>
      <trkpt lat="48.3533" lon="7.26364">
        <ele>306.763945</ele>
        <time>2020-09-18T20:24:55.255Z</time>
      </trkpt>
      <trkpt lat="48.35329" lon="7.26329">
        <ele>307.115803</ele>
        <time>2020-09-18T20:25:00.027Z</time>
      </trkpt>
      <trkpt lat="48.35329" lon="7.26326">
        <ele>307.140994</ele>
        <time>2020-09-18T20:25:00.379Z</time>
      </trkpt>
      <trkpt lat="48.35327" lon="7.2629">
        <ele>307.509119</ele>
        <time>2020-09-18T20:25:05.978Z</time>
      </trkpt>
      <trkpt lat="48.35335" lon="7.26244">
        <ele>308.117442</ele>
        <time>2020-09-18T20:25:12.863Z</time>
      </trkpt>
      <trkpt lat="48.35348" lon="7.26201">
        <ele>308.740991</ele>
        <time>2020-09-18T20:25:19.726Z</time>
      </trkpt>
      <trkpt lat="48.35365" lon="7.2615">
        <ele>309.487158</ele>
        <time>2020-09-18T20:25:28.318Z</time>
      </trkpt>
      <trkpt lat="48.3537" lon="7.26134">
        <ele>309.717285</ele>
        <time>2020-09-18T20:25:31.068Z</time>
      </trkpt>
      <trkpt lat="48.35374" lon="7.26118">
        <ele>309.927978</ele>
        <time>2020-09-18T20:25:33.637Z</time>
      </trkpt>
      <trkpt lat="48.35388" lon="7.25942">
        <ele>312.125328</ele>
        <time>2020-09-18T20:26:01.425Z</time>
      </trkpt>
      <trkpt lat="48.35397" lon="7.25888">
        <ele>312.784974</ele>
        <time>2020-09-18T20:26:09.251Z</time>
      </trkpt>
      <trkpt lat="48.35421" lon="7.25777">
        <ele>314.166537</ele>
        <time>2020-09-18T20:26:25.210Z</time>
      </trkpt>
      <trkpt lat="48.35425" lon="7.25758">
        <ele>314.436809</ele>
        <time>2020-09-18T20:26:28.161Z</time>
      </trkpt>
      <trkpt lat="48.35453" lon="7.25623">
        <ele>316.490424</ele>
        <time>2020-09-18T20:26:48.896Z</time>
      </trkpt>
      <trkpt lat="48.35456" lon="7.25607">
        <ele>316.72237</ele>
        <time>2020-09-18T20:26:51.966Z</time>
      </trkpt>
      <trkpt lat="48.35476" lon="7.25505">
        <ele>318.301206</ele>
        <time>2020-09-18T20:27:09.638Z</time>
      </trkpt>
      <trkpt lat="48.35481" lon="7.25479">
        <ele>318.803431</ele>
        <time>2020-09-18T20:27:14.355Z</time>
      </trkpt>
      <trkpt lat="48.35483" lon="7.25469">
        <ele>318.993171</ele>
        <time>2020-09-18T20:27:15.858Z</time>
      </trkpt>
      <trkpt lat="48.35484" lon="7.2546">
        <ele>319.180561</ele>
        <time>2020-09-18T20:27:17.906Z</time>
      </trkpt>
      <trkpt lat="48.35489" lon="7.25459">
        <ele>319.313574</ele>
        <time>2020-09-18T20:27:19.678Z</time>
      </trkpt>
      <trkpt lat="48.35492" lon="7.25454">
        <ele>319.44379</ele>
        <time>2020-09-18T20:27:20.901Z</time>
      </trkpt>
      <trkpt lat="48.35494" lon="7.25447">
        <ele>319.575441</ele>
        <time>2020-09-18T20:27:22.465Z</time>
      </trkpt>
      <trkpt lat="48.35493" lon="7.25442">
        <ele>319.683378</ele>
        <time>2020-09-18T20:27:23.464Z</time>
      </trkpt>
      <trkpt lat="48.35491" lon="7.25437">
        <ele>319.792067</ele>
        <time>2020-09-18T20:27:24.288Z</time>
      </trkpt>
      <trkpt lat="48.35487" lon="7.25434">
        <ele>319.90228</ele>
        <time>2020-09-18T20:27:25.057Z</time>
      </trkpt>
      <trkpt lat="48.35499" lon="7.25353">
        <ele>321.442772</ele>
        <time>2020-09-18T20:27:40.744Z</time>
      </trkpt>
      <trkpt lat="48.35501" lon="7.25338">
        <ele>321.728218</ele>
        <time>2020-09-18T20:27:43.647Z</time>
      </trkpt>
      <trkpt lat="48.35513" lon="7.25255">
        <ele>323.256717</ele>
        <time>2020-09-18T20:27:58.131Z</time>
      </trkpt>
      <trkpt lat="48.35538" lon="7.24904">
        <ele>326.98356</ele>
        <time>2020-09-18T20:28:45.372Z</time>
      </trkpt>
      <trkpt lat="48.35541" lon="7.2471">
        <ele>329.444312</ele>
        <time>2020-09-18T20:29:14.181Z</time>
      </trkpt>
      <trkpt lat="48.35542" lon="7.24621">
        <ele>331.739549</ele>
        <time>2020-09-18T20:29:29.392Z</time>
      </trkpt>
      <trkpt lat="48.35545" lon="7.24547">
        <ele>333.662397</ele>
        <time>2020-09-18T20:29:44.614Z</time>
      </trkpt>
      <trkpt lat="48.35553" lon="7.2449">
        <ele>335.147967</ele>
        <time>2020-09-18T20:29:57.285Z</time>
      </trkpt>
      <trkpt lat="48.35572" lon="7.24442">
        <ele>336.855076</ele>
        <time>2020-09-18T20:30:11.954Z</time>
      </trkpt>
      <trkpt lat="48.35586" lon="7.24421">
        <ele>338.037712</ele>
        <time>2020-09-18T20:30:19.636Z</time>
      </trkpt>
      <trkpt lat="48.35609" lon="7.24389">
        <ele>339.851366</ele>
        <time>2020-09-18T20:30:31.555Z</time>
      </trkpt>
      <trkpt lat="48.35638" lon="7.24356">
        <ele>341.976695</ele>
        <time>2020-09-18T20:30:46.638Z</time>
      </trkpt>
      <trkpt lat="48.3565" lon="7.24347">
        <ele>342.774925</ele>
        <time>2020-09-18T20:30:51.980Z</time>
      </trkpt>
      <trkpt lat="48.35668" lon="7.24333">
        <ele>343.961897</ele>
        <time>2020-09-18T20:30:59.804Z</time>
      </trkpt>
      <trkpt lat="48.35683" lon="7.24327">
        <ele>344.85782</ele>
        <time>2020-09-18T20:31:06.133Z</time>
      </trkpt>
      <trkpt lat="48.35769" lon="7.24297">
        <ele>348.676842</ele>
        <time>2020-09-18T20:31:37.141Z</time>
      </trkpt>
      <trkpt lat="48.35775" lon="7.24293">
        <ele>348.9165</ele>
        <time>2020-09-18T20:31:40.657Z</time>
      </trkpt>
      <trkpt lat="48.35782" lon="7.24285">
        <ele>349.218501</ele>
        <time>2020-09-18T20:31:43.246Z</time>
      </trkpt>
      <trkpt lat="48.35801" lon="7.24247">
        <ele>350.317395</ele>
        <time>2020-09-18T20:31:52.759Z</time>
      </trkpt>
      <trkpt lat="48.35811" lon="7.24231">
        <ele>350.834955</ele>
        <time>2020-09-18T20:31:56.261Z</time>
      </trkpt>
      <trkpt lat="48.35855" lon="7.24169">
        <ele>352.933789</ele>
        <time>2020-09-18T20:32:09.893Z</time>
      </trkpt>
      <trkpt lat="48.35941" lon="7.24058">
        <ele>353.731658</ele>
        <time>2020-09-18T20:32:28.152Z</time>
      </trkpt>
      <trkpt lat="48.35955" lon="7.24035">
        <ele>353.876847</ele>
        <time>2020-09-18T20:32:32.029Z</time>
      </trkpt>
      <trkpt lat="48.35968" lon="7.24012">
        <ele>354.00944</ele>
        <time>2020-09-18T20:32:35.065Z</time>
      </trkpt>
      <trkpt lat="48.35976" lon="7.23996">
        <ele>354.105627</ele>
        <time>2020-09-18T20:32:37.956Z</time>
      </trkpt>
      <trkpt lat="48.35992" lon="7.23965">
        <ele>354.282392</ele>
        <time>2020-09-18T20:32:42.105Z</time>
      </trkpt>
      <trkpt lat="48.35995" lon="7.23961">
        <ele>354.306672</ele>
        <time>2020-09-18T20:32:43.095Z</time>
      </trkpt>
      <trkpt lat="48.36043" lon="7.23882">
        <ele>354.770945</ele>
        <time>2020-09-18T20:32:55.864Z</time>
      </trkpt>
      <trkpt lat="48.36047" lon="7.23875">
        <ele>354.813499</ele>
        <time>2020-09-18T20:32:57.377Z</time>
      </trkpt>
      <trkpt lat="48.36064" lon="7.23849">
        <ele>354.969255</ele>
        <time>2020-09-18T20:33:00.949Z</time>
      </trkpt>
      <trkpt lat="48.36071" lon="7.23838">
        <ele>355.035696</ele>
        <time>2020-09-18T20:33:03.166Z</time>
      </trkpt>
      <trkpt lat="48.36116" lon="7.23754">
        <ele>355.478724</ele>
        <time>2020-09-18T20:33:15.113Z</time>
      </trkpt>
      <trkpt lat="48.36143" lon="7.23715">
        <ele>355.677235</ele>
        <time>2020-09-18T20:33:21.215Z</time>
      </trkpt>
      <trkpt lat="48.3615" lon="7.23703">
        <ele>355.731781</ele>
        <time>2020-09-18T20:33:22.697Z</time>
      </trkpt>
      <trkpt lat="48.36165" lon="7.23664">
        <ele>355.891337</ele>
        <time>2020-09-18T20:33:27.442Z</time>
      </trkpt>
      <trkpt lat="48.3618" lon="7.23594">
        <ele>356.150508</ele>
        <time>2020-09-18T20:33:35.646Z</time>
      </trkpt>
      <trkpt lat="48.36181" lon="7.23591">
        <ele>356.161691</ele>
        <time>2020-09-18T20:33:35.987Z</time>
      </trkpt>
      <trkpt lat="48.36187" lon="7.23563">
        <ele>356.263988</ele>
        <time>2020-09-18T20:33:39.429Z</time>
      </trkpt>
      <trkpt lat="48.36204" lon="7.23481">
        <ele>357.058687</ele>
        <time>2020-09-18T20:33:50.439Z</time>
      </trkpt>
      <trkpt lat="48.36238" lon="7.2333">
        <ele>358.752214</ele>
        <time>2020-09-18T20:34:13.835Z</time>
      </trkpt>
      <trkpt lat="48.36263" lon="7.2322">
        <ele>360.187165</ele>
        <time>2020-09-18T20:34:31.748Z</time>
      </trkpt>
      <trkpt lat="48.36262" lon="7.23102">
        <ele>361.745551</ele>
        <time>2020-09-18T20:34:49.539Z</time>
      </trkpt>
      <trkpt lat="48.36272" lon="7.23013">
        <ele>362.988935</ele>
        <time>2020-09-18T20:35:03.025Z</time>
      </trkpt>
      <trkpt lat="48.36277" lon="7.22997">
        <ele>363.27971</ele>
        <time>2020-09-18T20:35:06.059Z</time>
      </trkpt>
      <trkpt lat="48.36281" lon="7.22985">
        <ele>363.504753</ele>
        <time>2020-09-18T20:35:07.891Z</time>
      </trkpt>
      <trkpt lat="48.36287" lon="7.22971">
        <ele>363.794642</ele>
        <time>2020-09-18T20:35:10.396Z</time>
      </trkpt>
      <trkpt lat="48.36302" lon="7.22941">
        <ele>364.40989</ele>
        <time>2020-09-18T20:35:16.465Z</time>
      </trkpt>
      <trkpt lat="48.36307" lon="7.2293">
        <ele>364.633926</ele>
        <time>2020-09-18T20:35:18.433Z</time>
      </trkpt>
      <trkpt lat="48.36309" lon="7.22923">
        <ele>364.762588</ele>
        <time>2020-09-18T20:35:19.761Z</time>
      </trkpt>
      <trkpt lat="48.36313" lon="7.22911">
        <ele>364.993678</ele>
        <time>2020-09-18T20:35:22.565Z</time>
      </trkpt>
      <trkpt lat="48.36325" lon="7.22829">
        <ele>366.402121</ele>
        <time>2020-09-18T20:35:36.314Z</time>
      </trkpt>
      <trkpt lat="48.36332" lon="7.22755">
        <ele>367.680815</ele>
        <time>2020-09-18T20:35:49.979Z</time>
      </trkpt>
      <trkpt lat="48.36335" lon="7.22721">
        <ele>368.266287</ele>
        <time>2020-09-18T20:35:55.675Z</time>
      </trkpt>
      <trkpt lat="48.36338" lon="7.22683">
        <ele>368.95405</ele>
        <time>2020-09-18T20:36:02.848Z</time>
      </trkpt>
      <trkpt lat="48.36343" lon="7.22535">
        <ele>371.547245</ele>
        <time>2020-09-18T20:36:27.118Z</time>
      </trkpt>
      <trkpt lat="48.36341" lon="7.2249">
        <ele>372.327682</ele>
        <time>2020-09-18T20:36:34.495Z</time>
      </trkpt>
      <trkpt lat="48.36324" lon="7.22351">
        <ele>374.753395</ele>
        <time>2020-09-18T20:36:57.515Z</time>
      </trkpt>
      <trkpt lat="48.36324" lon="7.2228">
        <ele>375.979449</ele>
        <time>2020-09-18T20:37:10.360Z</time>
      </trkpt>
      <trkpt lat="48.36325" lon="7.22253">
        <ele>376.438655</ele>
        <time>2020-09-18T20:37:14.802Z</time>
      </trkpt>
      <trkpt lat="48.36327" lon="7.22217">
        <ele>376.994802</ele>
        <time>2020-09-18T20:37:21.186Z</time>
      </trkpt>
      <trkpt lat="48.36331" lon="7.22199">
        <ele>377.27065</ele>
        <time>2020-09-18T20:37:24.054Z</time>
      </trkpt>
      <trkpt lat="48.36339" lon="7.22191">
        <ele>377.480965</ele>
        <time>2020-09-18T20:37:26.687Z</time>
      </trkpt>
      <trkpt lat="48.3635" lon="7.22189">
        <ele>377.715067</ele>
        <time>2020-09-18T20:37:29.545Z</time>
      </trkpt>
      <trkpt lat="48.36365" lon="7.22196">
        <ele>378.036498</ele>
        <time>2020-09-18T20:37:32.846Z</time>
      </trkpt>
      <trkpt lat="48.36366" lon="7.22197">
        <ele>378.061283</ele>
        <time>2020-09-18T20:37:33.114Z</time>
      </trkpt>
      <trkpt lat="48.36374" lon="7.22205">
        <ele>378.270829</ele>
        <time>2020-09-18T20:37:35.684Z</time>
      </trkpt>
      <trkpt lat="48.36383" lon="7.22222">
        <ele>378.580281</ele>
        <time>2020-09-18T20:37:39.308Z</time>
      </trkpt>
      <trkpt lat="48.36389" lon="7.22249">
        <ele>378.973643</ele>
        <time>2020-09-18T20:37:43.329Z</time>
      </trkpt>
      <trkpt lat="48.3639" lon="7.22271">
        <ele>379.285266</ele>
        <time>2020-09-18T20:37:46.921Z</time>
      </trkpt>
      <trkpt lat="48.36389" lon="7.22287">
        <ele>379.512018</ele>
        <time>2020-09-18T20:37:49.008Z</time>
      </trkpt>
      <trkpt lat="48.36389" lon="7.2233">
        <ele>380.112988</ele>
        <time>2020-09-18T20:37:55.435Z</time>
      </trkpt>
      <trkpt lat="48.36407" lon="7.22481">
        <ele>382.07104</ele>
        <time>2020-09-18T20:38:16.517Z</time>
      </trkpt>
      <trkpt lat="48.36402" lon="7.22641">
        <ele>384.29055</ele>
        <time>2020-09-18T20:38:40.144Z</time>
      </trkpt>
      <trkpt lat="48.36407" lon="7.22672">
        <ele>385.307739</ele>
        <time>2020-09-18T20:38:45.874Z</time>
      </trkpt>
      <trkpt lat="48.36425" lon="7.22728">
        <ele>387.306149</ele>
        <time>2020-09-18T20:38:58.425Z</time>
      </trkpt>
      <trkpt lat="48.36426" lon="7.22748">
        <ele>387.925198</ele>
        <time>2020-09-18T20:39:02.768Z</time>
      </trkpt>
      <trkpt lat="48.36406" lon="7.22825">
        <ele>390.564329</ele>
        <time>2020-09-18T20:39:22.491Z</time>
      </trkpt>
      <trkpt lat="48.3641" lon="7.2284">
        <ele>391.08371</ele>
        <time>2020-09-18T20:39:26.882Z</time>
      </trkpt>
      <trkpt lat="48.36419" lon="7.2285">
        <ele>391.634726</ele>
        <time>2020-09-18T20:39:31.636Z</time>
      </trkpt>
      <trkpt lat="48.36454" lon="7.22864">
        <ele>394.042045</ele>
        <time>2020-09-18T20:39:47.457Z</time>
      </trkpt>
      <trkpt lat="48.36468" lon="7.22879">
        <ele>395.480723</ele>
        <time>2020-09-18T20:39:55.204Z</time>
      </trkpt>
      <trkpt lat="48.36474" lon="7.22898">
        <ele>396.629846</ele>
        <time>2020-09-18T20:40:01.666Z</time>
      </trkpt>
      <trkpt lat="48.36469" lon="7.22956">
        <ele>399.969273</ele>
        <time>2020-09-18T20:40:20.409Z</time>
      </trkpt>
      <trkpt lat="48.36475" lon="7.22981">
        <ele>401.450956</ele>
        <time>2020-09-18T20:40:30.448Z</time>
      </trkpt>
      <trkpt lat="48.36535" lon="7.23087">
        <ele>408.75263</ele>
        <time>2020-09-18T20:41:20.002Z</time>
      </trkpt>
      <trkpt lat="48.3655" lon="7.23144">
        <ele>410.888954</ele>
        <time>2020-09-18T20:41:37.311Z</time>
      </trkpt>
      <trkpt lat="48.36549" lon="7.23175">
        <ele>411.981894</ele>
        <time>2020-09-18T20:41:46.632Z</time>
      </trkpt>
      <trkpt lat="48.36545" lon="7.23188">
        <ele>412.475589</ele>
        <time>2020-09-18T20:41:49.665Z</time>
      </trkpt>
      <trkpt lat="48.36528" lon="7.23224">
        <ele>414.015576</ele>
        <time>2020-09-18T20:41:59.785Z</time>
      </trkpt>
      <trkpt lat="48.36496" lon="7.23252">
        <ele>415.9695</ele>
        <time>2020-09-18T20:42:10.068Z</time>
      </trkpt>
      <trkpt lat="48.36431" lon="7.23246">
        <ele>417.737747</ele>
        <time>2020-09-18T20:42:23.418Z</time>
      </trkpt>
      <trkpt lat="48.36406" lon="7.23268">
        <ele>418.079898</ele>
        <time>2020-09-18T20:42:26.739Z</time>
      </trkpt>
      <trkpt lat="48.36388" lon="7.23309">
        <ele>418.452194</ele>
        <time>2020-09-18T20:42:30.204Z</time>
      </trkpt>
      <trkpt lat="48.3638" lon="7.23371">
        <ele>418.943189</ele>
        <time>2020-09-18T20:42:37.609Z</time>
      </trkpt>
      <trkpt lat="48.36384" lon="7.23483">
        <ele>422.029453</ele>
        <time>2020-09-18T20:43:01.374Z</time>
      </trkpt>
      <trkpt lat="48.36391" lon="7.23505">
        <ele>423.132038</ele>
        <time>2020-09-18T20:43:07.235Z</time>
      </trkpt>
      <trkpt lat="48.36412" lon="7.2353">
        <ele>425.019012</ele>
        <time>2020-09-18T20:43:18.628Z</time>
      </trkpt>
      <trkpt lat="48.36414" lon="7.23531">
        <ele>425.148672</ele>
        <time>2020-09-18T20:43:19.367Z</time>
      </trkpt>
      <trkpt lat="48.36431" lon="7.23536">
        <ele>426.326197</ele>
        <time>2020-09-18T20:43:26.335Z</time>
      </trkpt>
      <trkpt lat="48.36445" lon="7.23529">
        <ele>427.329942</ele>
        <time>2020-09-18T20:43:34.040Z</time>
      </trkpt>
      <trkpt lat="48.36488" lon="7.23478">
        <ele>431.170564</ele>
        <time>2020-09-18T20:44:01.391Z</time>
      </trkpt>
      <trkpt lat="48.36556" lon="7.23323">
        <ele>441.811784</ele>
        <time>2020-09-18T20:45:09.376Z</time>
      </trkpt>
      <trkpt lat="48.36594" lon="7.23277">
        <ele>446.114917</ele>
        <time>2020-09-18T20:45:31.568Z</time>
      </trkpt>
      <trkpt lat="48.36639" lon="7.23187">
        <ele>450.132321</ele>
        <time>2020-09-18T20:46:02.073Z</time>
      </trkpt>
      <trkpt lat="48.36686" lon="7.23147">
        <ele>452.513757</ele>
        <time>2020-09-18T20:46:20.523Z</time>
      </trkpt>
      <trkpt lat="48.36696" lon="7.23129">
        <ele>453.187045</ele>
        <time>2020-09-18T20:46:23.654Z</time>
      </trkpt>
      <trkpt lat="48.367" lon="7.23104">
        <ele>453.92992</ele>
        <time>2020-09-18T20:46:29.955Z</time>
      </trkpt>
      <trkpt lat="48.36701" lon="7.23092">
        <ele>454.276605</ele>
        <time>2020-09-18T20:46:30.742Z</time>
      </trkpt>
      <trkpt lat="48.36689" lon="7.23048">
        <ele>455.508039</ele>
        <time>2020-09-18T20:46:38.985Z</time>
      </trkpt>
      <trkpt lat="48.36652" lon="7.23011">
        <ele>455.95011</ele>
        <time>2020-09-18T20:46:46.597Z</time>
      </trkpt>
      <trkpt lat="48.36643" lon="7.22996">
        <ele>456.086167</ele>
        <time>2020-09-18T20:46:49.791Z</time>
      </trkpt>
      <trkpt lat="48.36639" lon="7.22973">
        <ele>456.241106</ele>
        <time>2020-09-18T20:46:52.498Z</time>
      </trkpt>
      <trkpt lat="48.36646" lon="7.2291">
        <ele>456.662458</ele>
        <time>2020-09-18T20:46:58.950Z</time>
      </trkpt>
      <trkpt lat="48.36644" lon="7.22884">
        <ele>456.836792</ele>
        <time>2020-09-18T20:47:01.522Z</time>
      </trkpt>
      <trkpt lat="48.36642" lon="7.2288">
        <ele>456.865385</ele>
        <time>2020-09-18T20:47:02.539Z</time>
      </trkpt>
      <trkpt lat="48.36637" lon="7.22868">
        <ele>456.962715</ele>
        <time>2020-09-18T20:47:03.839Z</time>
      </trkpt>
      <trkpt lat="48.36609" lon="7.22825">
        <ele>457.582456</ele>
        <time>2020-09-18T20:47:11.242Z</time>
      </trkpt>
      <trkpt lat="48.36605" lon="7.228">
        <ele>458.109331</ele>
        <time>2020-09-18T20:47:14.728Z</time>
      </trkpt>
      <trkpt lat="48.36622" lon="7.2269">
        <ele>460.354608</ele>
        <time>2020-09-18T20:47:33.937Z</time>
      </trkpt>
      <trkpt lat="48.36633" lon="7.22529">
        <ele>463.843575</ele>
        <time>2020-09-18T20:48:08.564Z</time>
      </trkpt>
      <trkpt lat="48.36636" lon="7.22487">
        <ele>464.896919</ele>
        <time>2020-09-18T20:48:17.651Z</time>
      </trkpt>
      <trkpt lat="48.36634" lon="7.22446">
        <ele>465.936727</ele>
        <time>2020-09-18T20:48:26.754Z</time>
      </trkpt>
      <trkpt lat="48.36626" lon="7.22391">
        <ele>467.373966</ele>
        <time>2020-09-18T20:48:38.065Z</time>
      </trkpt>
      <trkpt lat="48.36625" lon="7.22376">
        <ele>467.748874</ele>
        <time>2020-09-18T20:48:40.390Z</time>
      </trkpt>
      <trkpt lat="48.36628" lon="7.22357">
        <ele>468.24955</ele>
        <time>2020-09-18T20:48:45.495Z</time>
      </trkpt>
      <trkpt lat="48.36638" lon="7.22337">
        <ele>468.87029</ele>
        <time>2020-09-18T20:48:49.138Z</time>
      </trkpt>
      <trkpt lat="48.36685" lon="7.22312">
        <ele>470.345114</ele>
        <time>2020-09-18T20:49:02.487Z</time>
      </trkpt>
      <trkpt lat="48.36693" lon="7.22298">
        <ele>470.6561</ele>
        <time>2020-09-18T20:49:05.281Z</time>
      </trkpt>
      <trkpt lat="48.36695" lon="7.22275">
        <ele>471.04188</ele>
        <time>2020-09-18T20:49:07.664Z</time>
      </trkpt>
      <trkpt lat="48.36679" lon="7.22222">
        <ele>472.031843</ele>
        <time>2020-09-18T20:49:17.177Z</time>
      </trkpt>
      <trkpt lat="48.36629" lon="7.22139">
        <ele>473.921143</ele>
        <time>2020-09-18T20:49:34.525Z</time>
      </trkpt>
      <trkpt lat="48.3662" lon="7.22103">
        <ele>475.092</ele>
        <time>2020-09-18T20:49:40.924Z</time>
      </trkpt>
      <trkpt lat="48.36585" lon="7.21826">
        <ele>485.025251</ele>
        <time>2020-09-18T20:50:50.094Z</time>
      </trkpt>
      <trkpt lat="48.36585" lon="7.21775">
        <ele>487.354303</ele>
        <time>2020-09-18T20:51:05.397Z</time>
      </trkpt>
      <trkpt lat="48.3662" lon="7.21673">
        <ele>492.636182</ele>
        <time>2020-09-18T20:51:40.162Z</time>
      </trkpt>
      <trkpt lat="48.36627" lon="7.21634">
        <ele>494.520389</ele>
        <time>2020-09-18T20:51:52.207Z</time>
      </trkpt>
      <trkpt lat="48.3663" lon="7.2155">
        <ele>497.613141</ele>
        <time>2020-09-18T20:52:14.652Z</time>
      </trkpt>
      <trkpt lat="48.36629" lon="7.21535">
        <ele>498.099047</ele>
        <time>2020-09-18T20:52:19.055Z</time>
      </trkpt>
      <trkpt lat="48.36628" lon="7.21525">
        <ele>498.453743</ele>
        <time>2020-09-18T20:52:21.232Z</time>
      </trkpt>
      <trkpt lat="48.36612" lon="7.21439">
        <ele>501.44182</ele>
        <time>2020-09-18T20:52:41.569Z</time>
      </trkpt>
      <trkpt lat="48.36606" lon="7.21373">
        <ele>503.681783</ele>
        <time>2020-09-18T20:52:55.765Z</time>
      </trkpt>
      <trkpt lat="48.36614" lon="7.21333">
        <ele>504.872472</ele>
        <time>2020-09-18T20:53:03.708Z</time>
      </trkpt>
      <trkpt lat="48.36649" lon="7.21253">
        <ele>506.63521</ele>
        <time>2020-09-18T20:53:20.940Z</time>
      </trkpt>
      <trkpt lat="48.36654" lon="7.21197">
        <ele>507.677587</ele>
        <time>2020-09-18T20:53:30.704Z</time>
      </trkpt>
      <trkpt lat="48.36623" lon="7.21039">
        <ele>510.383117</ele>
        <time>2020-09-18T20:53:56.670Z</time>
      </trkpt>
      <trkpt lat="48.36608" lon="7.20826">
        <ele>513.236553</ele>
        <time>2020-09-18T20:54:28.097Z</time>
      </trkpt>
      <trkpt lat="48.3658" lon="7.20747">
        <ele>515.102435</ele>
        <time>2020-09-18T20:54:42.120Z</time>
      </trkpt>
      <trkpt lat="48.36544" lon="7.20619">
        <ele>518.019519</ele>
        <time>2020-09-18T20:55:08.447Z</time>
      </trkpt>
      <trkpt lat="48.36481" lon="7.2051">
        <ele>521.925412</ele>
        <time>2020-09-18T20:55:39.702Z</time>
      </trkpt>
      <trkpt lat="48.36429" lon="7.20371">
        <ele>526.597331</ele>
        <time>2020-09-18T20:56:13.949Z</time>
      </trkpt>
      <trkpt lat="48.36385" lon="7.2025">
        <ele>531.227674</ele>
        <time>2020-09-18T20:56:46.141Z</time>
      </trkpt>
      <trkpt lat="48.3637" lon="7.20175">
        <ele>533.904875</ele>
        <time>2020-09-18T20:57:05.563Z</time>
      </trkpt>
      <trkpt lat="48.36369" lon="7.20137">
        <ele>535.207597</ele>
        <time>2020-09-18T20:57:14.823Z</time>
      </trkpt>
      <trkpt lat="48.36369" lon="7.2013">
        <ele>535.438328</ele>
        <time>2020-09-18T20:57:16.433Z</time>
      </trkpt>
      <trkpt lat="48.36368" lon="7.20015">
        <ele>539.035534</ele>
        <time>2020-09-18T20:57:42.189Z</time>
      </trkpt>
      <trkpt lat="48.36367" lon="7.19982">
        <ele>540.062792</ele>
        <time>2020-09-18T20:57:49.895Z</time>
      </trkpt>
      <trkpt lat="48.36371" lon="7.19969">
        <ele>540.496797</ele>
        <time>2020-09-18T20:57:52.998Z</time>
      </trkpt>
      <trkpt lat="48.36375" lon="7.19961">
        <ele>540.796377</ele>
        <time>2020-09-18T20:57:55.082Z</time>
      </trkpt>
      <trkpt lat="48.36379" lon="7.19959">
        <ele>540.987117</ele>
        <time>2020-09-18T20:57:56.481Z</time>
      </trkpt>
      <trkpt lat="48.36381" lon="7.19956">
        <ele>541.108189</ele>
        <time>2020-09-18T20:57:57.474Z</time>
      </trkpt>
      <trkpt lat="48.36383" lon="7.19951">
        <ele>541.298908</ele>
        <time>2020-09-18T20:57:58.855Z</time>
      </trkpt>
      <trkpt lat="48.36384" lon="7.19946">
        <ele>541.456206</ele>
        <time>2020-09-18T20:58:00.103Z</time>
      </trkpt>
      <trkpt lat="48.36384" lon="7.19946">
        <ele>541.456206</ele>
        <time>2020-09-18T20:58:00.105Z</time>
      </trkpt>
      <trkpt lat="48.36384" lon="7.1994">
        <ele>541.645004</ele>
        <time>2020-09-18T20:58:01.681Z</time>
      </trkpt>
      <trkpt lat="48.36382" lon="7.19934">
        <ele>541.854353</ele>
        <time>2020-09-18T20:58:03.253Z</time>
      </trkpt>
      <trkpt lat="48.36379" lon="7.1993">
        <ele>542.042867</ele>
        <time>2020-09-18T20:58:04.724Z</time>
      </trkpt>
      <trkpt lat="48.36377" lon="7.19928">
        <ele>542.178846</ele>
        <time>2020-09-18T20:58:05.693Z</time>
      </trkpt>
      <trkpt lat="48.36373" lon="7.19926">
        <ele>542.364871</ele>
        <time>2020-09-18T20:58:07.009Z</time>
      </trkpt>
      <trkpt lat="48.36369" lon="7.19921">
        <ele>542.600619</ele>
        <time>2020-09-18T20:58:08.647Z</time>
      </trkpt>
      <trkpt lat="48.36362" lon="7.19907">
        <ele>543.144951</ele>
        <time>2020-09-18T20:58:12.268Z</time>
      </trkpt>
      <trkpt lat="48.36358" lon="7.19901">
        <ele>543.393842</ele>
        <time>2020-09-18T20:58:14.105Z</time>
      </trkpt>
      <trkpt lat="48.36335" lon="7.19835">
        <ele>545.334503</ele>
        <time>2020-09-18T20:58:29.031Z</time>
      </trkpt>
      <trkpt lat="48.36292" lon="7.19713">
        <ele>548.477957</ele>
        <time>2020-09-18T20:58:56.562Z</time>
      </trkpt>
      <trkpt lat="48.36255" lon="7.19598">
        <ele>550.633718</ele>
        <time>2020-09-18T20:59:18.797Z</time>
      </trkpt>
      <trkpt lat="48.36246" lon="7.19536">
        <ele>550.8899</ele>
        <time>2020-09-18T20:59:27.647Z</time>
      </trkpt>
      <trkpt lat="48.36245" lon="7.19512">
        <ele>550.984161</ele>
        <time>2020-09-18T20:59:30.216Z</time>
      </trkpt>
      <trkpt lat="48.36244" lon="7.1949">
        <ele>551.075254</ele>
        <time>2020-09-18T20:59:32.684Z</time>
      </trkpt>
      <trkpt lat="48.36245" lon="7.19481">
        <ele>551.109157</ele>
        <time>2020-09-18T20:59:33.762Z</time>
      </trkpt>
      <trkpt lat="48.3625" lon="7.19385">
        <ele>551.498956</ele>
        <time>2020-09-18T20:59:42.238Z</time>
      </trkpt>
      <trkpt lat="48.36249" lon="7.19322">
        <ele>551.186573</ele>
        <time>2020-09-18T20:59:47.153Z</time>
      </trkpt>
      <trkpt lat="48.36228" lon="7.19091">
        <ele>549.543268</ele>
        <time>2020-09-18T21:00:04.831Z</time>
      </trkpt>
      <trkpt lat="48.36212" lon="7.19003">
        <ele>550.554905</ele>
        <time>2020-09-18T21:00:16.268Z</time>
      </trkpt>
      <trkpt lat="48.36167" lon="7.18835">
        <ele>552.704208</ele>
        <time>2020-09-18T21:00:46.444Z</time>
      </trkpt>
      <trkpt lat="48.36154" lon="7.18728">
        <ele>555.068774</ele>
        <time>2020-09-18T21:01:06.929Z</time>
      </trkpt>
      <trkpt lat="48.36167" lon="7.18543">
        <ele>559.613455</ele>
        <time>2020-09-18T21:01:42.233Z</time>
      </trkpt>
      <trkpt lat="48.3616" lon="7.1847">
        <ele>562.178952</ele>
        <time>2020-09-18T21:01:57.131Z</time>
      </trkpt>
      <trkpt lat="48.36157" lon="7.18462">
        <ele>562.470947</ele>
        <time>2020-09-18T21:01:59.213Z</time>
      </trkpt>
      <trkpt lat="48.36136" lon="7.18409">
        <ele>564.603041</ele>
        <time>2020-09-18T21:02:12.999Z</time>
      </trkpt>
      <trkpt lat="48.36121" lon="7.18373">
        <ele>566.099408</ele>
        <time>2020-09-18T21:02:24.352Z</time>
      </trkpt>
      <trkpt lat="48.36105" lon="7.18302">
        <ele>569.347143</ele>
        <time>2020-09-18T21:02:46.165Z</time>
      </trkpt>
      <trkpt lat="48.3609" lon="7.18213">
        <ele>574.638164</ele>
        <time>2020-09-18T21:03:17.744Z</time>
      </trkpt>
      <trkpt lat="48.36072" lon="7.18105">
        <ele>581.049343</ele>
        <time>2020-09-18T21:03:56.640Z</time>
      </trkpt>
      <trkpt lat="48.36052" lon="7.18031">
        <ele>584.800496</ele>
        <time>2020-09-18T21:04:23.626Z</time>
      </trkpt>
      <trkpt lat="48.36003" lon="7.179">
        <ele>590.414101</ele>
        <time>2020-09-18T21:05:06.227Z</time>
      </trkpt>
      <trkpt lat="48.35994" lon="7.17846">
        <ele>592.479771</ele>
        <time>2020-09-18T21:05:15.686Z</time>
      </trkpt>
      <trkpt lat="48.35992" lon="7.1781">
        <ele>593.297619</ele>
        <time>2020-09-18T21:05:20.242Z</time>
      </trkpt>
      <trkpt lat="48.35994" lon="7.17765">
        <ele>592.858592</ele>
        <time>2020-09-18T21:05:24.780Z</time>
      </trkpt>
      <trkpt lat="48.36001" lon="7.17699">
        <ele>592.201832</ele>
        <time>2020-09-18T21:05:30.212Z</time>
      </trkpt>
      <trkpt lat="48.36001" lon="7.17668">
        <ele>591.895148</ele>
        <time>2020-09-18T21:05:32.609Z</time>
      </trkpt>
      <trkpt lat="48.35998" lon="7.17636">
        <ele>591.575247</ele>
        <time>2020-09-18T21:05:34.880Z</time>
      </trkpt>
      <trkpt lat="48.35977" lon="7.175">
        <ele>589.06365</ele>
        <time>2020-09-18T21:05:44.118Z</time>
      </trkpt>
      <trkpt lat="48.35973" lon="7.17429">
        <ele>586.863578</ele>
        <time>2020-09-18T21:05:48.660Z</time>
      </trkpt>
      <trkpt lat="48.35978" lon="7.17392">
        <ele>585.712224</ele>
        <time>2020-09-18T21:05:51.078Z</time>
      </trkpt>
      <trkpt lat="48.36008" lon="7.17271">
        <ele>581.526952</ele>
        <time>2020-09-18T21:05:59.240Z</time>
      </trkpt>
      <trkpt lat="48.36025" lon="7.1707">
        <ele>573.297093</ele>
        <time>2020-09-18T21:06:11.496Z</time>
      </trkpt>
      <trkpt lat="48.36025" lon="7.16995">
        <ele>570.416039</ele>
        <time>2020-09-18T21:06:16.070Z</time>
      </trkpt>
      <trkpt lat="48.36021" lon="7.16973">
        <ele>569.610682</ele>
        <time>2020-09-18T21:06:17.421Z</time>
      </trkpt>
      <trkpt lat="48.3601" lon="7.16913">
        <ele>567.396517</ele>
        <time>2020-09-18T21:06:21.283Z</time>
      </trkpt>
      <trkpt lat="48.35968" lon="7.1669">
        <ele>559.943057</ele>
        <time>2020-09-18T21:06:35.937Z</time>
      </trkpt>
      <trkpt lat="48.35938" lon="7.1645">
        <ele>553.484627</ele>
        <time>2020-09-18T21:06:52.162Z</time>
      </trkpt>
      <trkpt lat="48.35919" lon="7.16318">
        <ele>549.629748</ele>
        <time>2020-09-18T21:07:00.875Z</time>
      </trkpt>
      <trkpt lat="48.35898" lon="7.16169">
        <ele>545.268332</ele>
        <time>2020-09-18T21:07:10.534Z</time>
      </trkpt>
      <trkpt lat="48.35886" lon="7.16126">
        <ele>543.948868</ele>
        <time>2020-09-18T21:07:13.469Z</time>
      </trkpt>
      <trkpt lat="48.35878" lon="7.16103">
        <ele>543.200521</ele>
        <time>2020-09-18T21:07:15.076Z</time>
      </trkpt>
      <trkpt lat="48.35846" lon="7.16012">
        <ele>540.247542</ele>
        <time>2020-09-18T21:07:21.688Z</time>
      </trkpt>
      <trkpt lat="48.35717" lon="7.15401">
        <ele>530.213209</ele>
        <time>2020-09-18T21:08:06.950Z</time>
      </trkpt>
      <trkpt lat="48.35663" lon="7.15273">
        <ele>529.641254</ele>
        <time>2020-09-18T21:08:22.726Z</time>
      </trkpt>
      <trkpt lat="48.35649" lon="7.15235">
        <ele>529.476456</ele>
        <time>2020-09-18T21:08:27.624Z</time>
      </trkpt>
      <trkpt lat="48.35631" lon="7.15146">
        <ele>528.924178</ele>
        <time>2020-09-18T21:08:37.237Z</time>
      </trkpt>
      <trkpt lat="48.35627" lon="7.15052">
        <ele>528.355859</ele>
        <time>2020-09-18T21:08:45.183Z</time>
      </trkpt>
      <trkpt lat="48.35668" lon="7.14828">
        <ele>525.812773</ele>
        <time>2020-09-18T21:09:01.844Z</time>
      </trkpt>
      <trkpt lat="48.35684" lon="7.1468">
        <ele>523.768222</ele>
        <time>2020-09-18T21:09:12.822Z</time>
      </trkpt>
      <trkpt lat="48.35684" lon="7.14664">
        <ele>523.582905</ele>
        <time>2020-09-18T21:09:13.920Z</time>
      </trkpt>
      <trkpt lat="48.35685" lon="7.14651">
        <ele>523.427982</ele>
        <time>2020-09-18T21:09:15.070Z</time>
      </trkpt>
      <trkpt lat="48.35677" lon="7.14469">
        <ele>521.304128</ele>
        <time>2020-09-18T21:09:28.953Z</time>
      </trkpt>
      <trkpt lat="48.35687" lon="7.14388">
        <ele>519.940293</ele>
        <time>2020-09-18T21:09:35.137Z</time>
      </trkpt>
      <trkpt lat="48.35704" lon="7.14314">
        <ele>518.357608</ele>
        <time>2020-09-18T21:09:40.677Z</time>
      </trkpt>
      <trkpt lat="48.35713" lon="7.14273">
        <ele>517.481537</ele>
        <time>2020-09-18T21:09:43.575Z</time>
      </trkpt>
      <trkpt lat="48.35751" lon="7.14147">
        <ele>514.779893</ele>
        <time>2020-09-18T21:09:52.473Z</time>
      </trkpt>
      <trkpt lat="48.35786" lon="7.14048">
        <ele>512.827819</ele>
        <time>2020-09-18T21:09:59.976Z</time>
      </trkpt>
      <trkpt lat="48.35794" lon="7.14024">
        <ele>512.358099</ele>
        <time>2020-09-18T21:10:01.892Z</time>
      </trkpt>
      <trkpt lat="48.35803" lon="7.13981">
        <ele>511.576113</ele>
        <time>2020-09-18T21:10:05.374Z</time>
      </trkpt>
      <trkpt lat="48.35805" lon="7.13965">
        <ele>511.299817</ele>
        <time>2020-09-18T21:10:06.551Z</time>
      </trkpt>
      <trkpt lat="48.35807" lon="7.13951">
        <ele>511.039004</ele>
        <time>2020-09-18T21:10:07.830Z</time>
      </trkpt>
      <trkpt lat="48.35814" lon="7.13819">
        <ele>509.639702</ele>
        <time>2020-09-18T21:10:19.015Z</time>
      </trkpt>
      <trkpt lat="48.35816" lon="7.13776">
        <ele>509.232154</ele>
        <time>2020-09-18T21:10:22.263Z</time>
      </trkpt>
      <trkpt lat="48.35824" lon="7.13707">
        <ele>508.580858</ele>
        <time>2020-09-18T21:10:27.820Z</time>
      </trkpt>
      <trkpt lat="48.35824" lon="7.13705">
        <ele>508.561734</ele>
        <time>2020-09-18T21:10:28.830Z</time>
      </trkpt>
      <trkpt lat="48.35827" lon="7.13695">
        <ele>508.456475</ele>
        <time>2020-09-18T21:10:29.551Z</time>
      </trkpt>
      <trkpt lat="48.3583" lon="7.13684">
        <ele>508.340887</ele>
        <time>2020-09-18T21:10:30.334Z</time>
      </trkpt>
      <trkpt lat="48.3585" lon="7.13638">
        <ele>507.554285</ele>
        <time>2020-09-18T21:10:34.263Z</time>
      </trkpt>
      <trkpt lat="48.35853" lon="7.13629">
        <ele>507.368957</ele>
        <time>2020-09-18T21:10:34.981Z</time>
      </trkpt>
      <trkpt lat="48.35859" lon="7.13612">
        <ele>507.024709</ele>
        <time>2020-09-18T21:10:37.321Z</time>
      </trkpt>
      <trkpt lat="48.35866" lon="7.13586">
        <ele>506.528015</ele>
        <time>2020-09-18T21:10:39.118Z</time>
      </trkpt>
      <trkpt lat="48.35867" lon="7.13583">
        <ele>506.48083</ele>
        <time>2020-09-18T21:10:39.278Z</time>
      </trkpt>
      <trkpt lat="48.35887" lon="7.13503">
        <ele>504.953533</ele>
        <time>2020-09-18T21:10:45.399Z</time>
      </trkpt>
      <trkpt lat="48.35889" lon="7.13499">
        <ele>504.856536</ele>
        <time>2020-09-18T21:10:45.705Z</time>
      </trkpt>
      <trkpt lat="48.35876" lon="7.13491">
        <ele>504.475205</ele>
        <time>2020-09-18T21:10:47.101Z</time>
      </trkpt>
      <trkpt lat="48.35836" lon="7.1347">
        <ele>503.356227</ele>
        <time>2020-09-18T21:10:51.395Z</time>
      </trkpt>
      <trkpt lat="48.35822" lon="7.13461">
        <ele>503.31169</ele>
        <time>2020-09-18T21:10:52.928Z</time>
      </trkpt>
      <trkpt lat="48.35807" lon="7.13453">
        <ele>503.281165</ele>
        <time>2020-09-18T21:10:54.909Z</time>
      </trkpt>
      <trkpt lat="48.35798" lon="7.1345">
        <ele>503.264209</ele>
        <time>2020-09-18T21:10:56.217Z</time>
      </trkpt>
      <trkpt lat="48.35781" lon="7.13445">
        <ele>503.230241</ele>
        <time>2020-09-18T21:10:58.258Z</time>
      </trkpt>
      <trkpt lat="48.35759" lon="7.13441">
        <ele>503.188559</ele>
        <time>2020-09-18T21:11:02.145Z</time>
      </trkpt>
      <trkpt lat="48.35749" lon="7.13439">
        <ele>503.169034</ele>
        <time>2020-09-18T21:11:03.216Z</time>
      </trkpt>
      <trkpt lat="48.3572" lon="7.13425">
        <ele>503.110552</ele>
        <time>2020-09-18T21:11:09.346Z</time>
      </trkpt>
      <trkpt lat="48.35685" lon="7.13396">
        <ele>503.033367</ele>
        <time>2020-09-18T21:11:17.129Z</time>
      </trkpt>
      <trkpt lat="48.35638" lon="7.13355">
        <ele>503.601115</ele>
        <time>2020-09-18T21:11:27.927Z</time>
      </trkpt>
      <trkpt lat="48.35613" lon="7.13333">
        <ele>504.105338</ele>
        <time>2020-09-18T21:11:34.075Z</time>
      </trkpt>
      <trkpt lat="48.35555" lon="7.1329">
        <ele>505.2191</ele>
        <time>2020-09-18T21:11:48.329Z</time>
      </trkpt>
      <trkpt lat="48.35488" lon="7.13211">
        <ele>506.667734</ele>
        <time>2020-09-18T21:12:08.288Z</time>
      </trkpt>
      <trkpt lat="48.35441" lon="7.13175">
        <ele>507.528795</ele>
        <time>2020-09-18T21:12:19.937Z</time>
      </trkpt>
      <trkpt lat="48.35387" lon="7.13153">
        <ele>508.434623</ele>
        <time>2020-09-18T21:12:31.487Z</time>
      </trkpt>
      <trkpt lat="48.35331" lon="7.13149">
        <ele>509.296616</ele>
        <time>2020-09-18T21:12:42.524Z</time>
      </trkpt>
      <trkpt lat="48.35315" lon="7.13152">
        <ele>509.513955</ele>
        <time>2020-09-18T21:12:45.652Z</time>
      </trkpt>
      <trkpt lat="48.35297" lon="7.13154">
        <ele>509.768993</ele>
        <time>2020-09-18T21:12:49.241Z</time>
      </trkpt>
      <trkpt lat="48.35249" lon="7.13154">
        <ele>510.41992</ele>
        <time>2020-09-18T21:12:58.625Z</time>
      </trkpt>
      <trkpt lat="48.35245" lon="7.13152">
        <ele>510.477712</ele>
        <time>2020-09-18T21:12:59.401Z</time>
      </trkpt>
      <trkpt lat="48.35238" lon="7.13149">
        <ele>510.573054</ele>
        <time>2020-09-18T21:13:00.873Z</time>
      </trkpt>
      <trkpt lat="48.35218" lon="7.1314">
        <ele>510.853718</ele>
        <time>2020-09-18T21:13:04.951Z</time>
      </trkpt>
      <trkpt lat="48.35195" lon="7.13118">
        <ele>511.223295</ele>
        <time>2020-09-18T21:13:10.521Z</time>
      </trkpt>
      <trkpt lat="48.35177" lon="7.13091">
        <ele>511.619893</ele>
        <time>2020-09-18T21:13:16.041Z</time>
      </trkpt>
      <trkpt lat="48.35156" lon="7.13047">
        <ele>512.429923</ele>
        <time>2020-09-18T21:13:24.008Z</time>
      </trkpt>
      <trkpt lat="48.35133" lon="7.12956">
        <ele>513.890346</ele>
        <time>2020-09-18T21:13:39.637Z</time>
      </trkpt>
      <trkpt lat="48.35125" lon="7.12855">
        <ele>515.409358</ele>
        <time>2020-09-18T21:13:56.934Z</time>
      </trkpt>
      <trkpt lat="48.35143" lon="7.12675">
        <ele>518.051726</ele>
        <time>2020-09-18T21:14:26.444Z</time>
      </trkpt>
      <trkpt lat="48.35159" lon="7.12635">
        <ele>518.724713</ele>
        <time>2020-09-18T21:14:33.127Z</time>
      </trkpt>
      <trkpt lat="48.35212" lon="7.12553">
        <ele>520.495878</ele>
        <time>2020-09-18T21:14:49.957Z</time>
      </trkpt>
      <trkpt lat="48.35231" lon="7.12498">
        <ele>521.5206</ele>
        <time>2020-09-18T21:14:59.193Z</time>
      </trkpt>
      <trkpt lat="48.35236" lon="7.12459">
        <ele>522.153198</ele>
        <time>2020-09-18T21:15:05.387Z</time>
      </trkpt>
      <trkpt lat="48.35235" lon="7.12439">
        <ele>522.489121</ele>
        <time>2020-09-18T21:15:08.101Z</time>
      </trkpt>
      <trkpt lat="48.35233" lon="7.12424">
        <ele>522.729606</ele>
        <time>2020-09-18T21:15:10.932Z</time>
      </trkpt>
      <trkpt lat="48.35208" lon="7.12335">
        <ele>524.580724</ele>
        <time>2020-09-18T21:15:29.630Z</time>
      </trkpt>
      <trkpt lat="48.35199" lon="7.122">
        <ele>528.101477</ele>
        <time>2020-09-18T21:15:57.345Z</time>
      </trkpt>
      <trkpt lat="48.35197" lon="7.1218">
        <ele>528.621323</ele>
        <time>2020-09-18T21:16:02.298Z</time>
      </trkpt>
      <trkpt lat="48.35194" lon="7.12165">
        <ele>529.03514</ele>
        <time>2020-09-18T21:16:05.599Z</time>
      </trkpt>
      <trkpt lat="48.35189" lon="7.12138">
        <ele>529.755216</ele>
        <time>2020-09-18T21:16:10.922Z</time>
      </trkpt>
      <trkpt lat="48.35185" lon="7.12113">
        <ele>530.44358</ele>
        <time>2020-09-18T21:16:16.798Z</time>
      </trkpt>
      <trkpt lat="48.35173" lon="7.12037">
        <ele>532.157208</ele>
        <time>2020-09-18T21:16:31.843Z</time>
      </trkpt>
      <trkpt lat="48.35168" lon="7.12015">
        <ele>532.657234</ele>
        <time>2020-09-18T21:16:37.120Z</time>
      </trkpt>
      <trkpt lat="48.35164" lon="7.11994">
        <ele>533.109416</ele>
        <time>2020-09-18T21:16:40.902Z</time>
      </trkpt>
      <trkpt lat="48.35128" lon="7.11861">
        <ele>536.127141</ele>
        <time>2020-09-18T21:17:06.059Z</time>
      </trkpt>
      <trkpt lat="48.35016" lon="7.11678">
        <ele>540.404758</ele>
        <time>2020-09-18T21:17:46.677Z</time>
      </trkpt>
      <trkpt lat="48.34999" lon="7.11632">
        <ele>541.290821</ele>
        <time>2020-09-18T21:17:55.612Z</time>
      </trkpt>
      <trkpt lat="48.34988" lon="7.11579">
        <ele>542.22523</ele>
        <time>2020-09-18T21:18:05.327Z</time>
      </trkpt>
      <trkpt lat="48.34967" lon="7.11402">
        <ele>545.270372</ele>
        <time>2020-09-18T21:18:35.586Z</time>
      </trkpt>
      <trkpt lat="48.34963" lon="7.11374">
        <ele>545.737807</ele>
        <time>2020-09-18T21:18:40.051Z</time>
      </trkpt>
      <trkpt lat="48.34955" lon="7.11321">
        <ele>546.487173</ele>
        <time>2020-09-18T21:18:48.249Z</time>
      </trkpt>
      <trkpt lat="48.34925" lon="7.11202">
        <ele>548.23746</ele>
        <time>2020-09-18T21:19:07.407Z</time>
      </trkpt>
      <trkpt lat="48.34922" lon="7.11192">
        <ele>548.383742</ele>
        <time>2020-09-18T21:19:08.931Z</time>
      </trkpt>
      <trkpt lat="48.34916" lon="7.11169">
        <ele>548.719645</ele>
        <time>2020-09-18T21:19:12.879Z</time>
      </trkpt>
      <trkpt lat="48.34907" lon="7.11131">
        <ele>549.278243</ele>
        <time>2020-09-18T21:19:18.899Z</time>
      </trkpt>
      <trkpt lat="48.34895" lon="7.1109">
        <ele>549.940992</ele>
        <time>2020-09-18T21:19:26.080Z</time>
      </trkpt>
      <trkpt lat="48.34893" lon="7.11067">
        <ele>550.290253</ele>
        <time>2020-09-18T21:19:29.771Z</time>
      </trkpt>
      <trkpt lat="48.34889" lon="7.11041">
        <ele>550.685937</ele>
        <time>2020-09-18T21:19:33.892Z</time>
      </trkpt>
      <trkpt lat="48.34886" lon="7.11028">
        <ele>550.903367</ele>
        <time>2020-09-18T21:19:36.006Z</time>
      </trkpt>
      <trkpt lat="48.34884" lon="7.11022">
        <ele>551.007419</ele>
        <time>2020-09-18T21:19:37.278Z</time>
      </trkpt>
      <trkpt lat="48.34881" lon="7.11013">
        <ele>551.154071</ele>
        <time>2020-09-18T21:19:38.874Z</time>
      </trkpt>
      <trkpt lat="48.34874" lon="7.10999">
        <ele>551.423878</ele>
        <time>2020-09-18T21:19:41.680Z</time>
      </trkpt>
      <trkpt lat="48.34865" lon="7.10944">
        <ele>552.284821</ele>
        <time>2020-09-18T21:19:50.802Z</time>
      </trkpt>
      <trkpt lat="48.34863" lon="7.10937">
        <ele>552.398399</ele>
        <time>2020-09-18T21:19:52.056Z</time>
      </trkpt>
      <trkpt lat="48.34861" lon="7.10916">
        <ele>552.726369</ele>
        <time>2020-09-18T21:19:55.707Z</time>
      </trkpt>
      <trkpt lat="48.3486" lon="7.10911">
        <ele>552.790749</ele>
        <time>2020-09-18T21:19:56.453Z</time>
      </trkpt>
      <trkpt lat="48.3486" lon="7.10906">
        <ele>552.867471</ele>
        <time>2020-09-18T21:19:57.318Z</time>
      </trkpt>
      <trkpt lat="48.34849" lon="7.10797">
        <ele>554.074039</ele>
        <time>2020-09-18T21:20:14.822Z</time>
      </trkpt>
      <trkpt lat="48.34848" lon="7.10744">
        <ele>554.509949</ele>
        <time>2020-09-18T21:20:22.422Z</time>
      </trkpt>
      <trkpt lat="48.34847" lon="7.10723">
        <ele>554.675521</ele>
        <time>2020-09-18T21:20:25.078Z</time>
      </trkpt>
      <trkpt lat="48.34847" lon="7.10716">
        <ele>554.737192</ele>
        <time>2020-09-18T21:20:26.061Z</time>
      </trkpt>
      <trkpt lat="48.34845" lon="7.10706">
        <ele>554.819966</ele>
        <time>2020-09-18T21:20:27.340Z</time>
      </trkpt>
      <trkpt lat="48.34842" lon="7.10699">
        <ele>554.888185</ele>
        <time>2020-09-18T21:20:28.465Z</time>
      </trkpt>
      <trkpt lat="48.34834" lon="7.10692">
        <ele>555.00573</ele>
        <time>2020-09-18T21:20:30.245Z</time>
      </trkpt>
      <trkpt lat="48.34781" lon="7.10683">
        <ele>555.655925</ele>
        <time>2020-09-18T21:20:39.120Z</time>
      </trkpt>
      <trkpt lat="48.34777" lon="7.10683">
        <ele>555.69769</ele>
        <time>2020-09-18T21:20:39.662Z</time>
      </trkpt>
      <trkpt lat="48.34769" lon="7.10682">
        <ele>555.727623</ele>
        <time>2020-09-18T21:20:40.906Z</time>
      </trkpt>
      <trkpt lat="48.34761" lon="7.10681">
        <ele>555.712097</ele>
        <time>2020-09-18T21:20:42.205Z</time>
      </trkpt>
      <trkpt lat="48.34743" lon="7.10679">
        <ele>555.681223</ele>
        <time>2020-09-18T21:20:44.786Z</time>
      </trkpt>
      <trkpt lat="48.34633" lon="7.10678">
        <ele>555.4852</ele>
        <time>2020-09-18T21:21:00.197Z</time>
      </trkpt>
      <trkpt lat="48.3462" lon="7.10682">
        <ele>555.461622</ele>
        <time>2020-09-18T21:21:02.024Z</time>
      </trkpt>
      <trkpt lat="48.34611" lon="7.10684">
        <ele>555.444879</ele>
        <time>2020-09-18T21:21:03.385Z</time>
      </trkpt>
      <trkpt lat="48.34521" lon="7.10717">
        <ele>554.811004</ele>
        <time>2020-09-18T21:21:15.383Z</time>
      </trkpt>
      <trkpt lat="48.34471" lon="7.10736">
        <ele>554.407843</ele>
        <time>2020-09-18T21:21:21.809Z</time>
      </trkpt>
      <trkpt lat="48.34469" lon="7.10737">
        <ele>554.39002</ele>
        <time>2020-09-18T21:21:22.068Z</time>
      </trkpt>
      <trkpt lat="48.34459" lon="7.10737">
        <ele>554.315196</ele>
        <time>2020-09-18T21:21:23.153Z</time>
      </trkpt>
      <trkpt lat="48.34436" lon="7.10744">
        <ele>554.131747</ele>
        <time>2020-09-18T21:21:26.150Z</time>
      </trkpt>
      <trkpt lat="48.34426" lon="7.10755">
        <ele>554.027559</ele>
        <time>2020-09-18T21:21:27.679Z</time>
      </trkpt>
      <trkpt lat="48.34421" lon="7.10757">
        <ele>553.985624</ele>
        <time>2020-09-18T21:21:28.240Z</time>
      </trkpt>
      <trkpt lat="48.34415" lon="7.10759">
        <ele>553.888748</ele>
        <time>2020-09-18T21:21:29.084Z</time>
      </trkpt>
      <trkpt lat="48.34376" lon="7.10772">
        <ele>553.30761</ele>
        <time>2020-09-18T21:21:33.958Z</time>
      </trkpt>
      <trkpt lat="48.3434" lon="7.10782">
        <ele>552.765152</ele>
        <time>2020-09-18T21:21:38.375Z</time>
      </trkpt>
      <trkpt lat="48.34328" lon="7.10783">
        <ele>552.580908</ele>
        <time>2020-09-18T21:21:39.766Z</time>
      </trkpt>
      <trkpt lat="48.34313" lon="7.10782">
        <ele>552.371764</ele>
        <time>2020-09-18T21:21:41.344Z</time>
      </trkpt>
      <trkpt lat="48.34275" lon="7.1077">
        <ele>551.787574</ele>
        <time>2020-09-18T21:21:45.789Z</time>
      </trkpt>
      <trkpt lat="48.34231" lon="7.10729">
        <ele>550.860457</ele>
        <time>2020-09-18T21:21:51.519Z</time>
      </trkpt>
      <trkpt lat="48.34217" lon="7.1071">
        <ele>550.449055</ele>
        <time>2020-09-18T21:21:53.603Z</time>
      </trkpt>
      <trkpt lat="48.34196" lon="7.1068">
        <ele>549.788958</ele>
        <time>2020-09-18T21:21:56.812Z</time>
      </trkpt>
      <trkpt lat="48.34101" lon="7.1054">
        <ele>546.72703</ele>
        <time>2020-09-18T21:22:10.976Z</time>
      </trkpt>
      <trkpt lat="48.34027" lon="7.1041">
        <ele>543.789818</ele>
        <time>2020-09-18T21:22:22.869Z</time>
      </trkpt>
      <trkpt lat="48.34013" lon="7.10393">
        <ele>543.333514</ele>
        <time>2020-09-18T21:22:24.708Z</time>
      </trkpt>
      <trkpt lat="48.33992" lon="7.1038">
        <ele>542.737158</ele>
        <time>2020-09-18T21:22:27.114Z</time>
      </trkpt>
      <trkpt lat="48.33965" lon="7.10377">
        <ele>542.072098</ele>
        <time>2020-09-18T21:22:29.965Z</time>
      </trkpt>
      <trkpt lat="48.33934" lon="7.10393">
        <ele>541.288764</ele>
        <time>2020-09-18T21:22:33.373Z</time>
      </trkpt>
      <trkpt lat="48.33892" lon="7.10462">
        <ele>539.764256</ele>
        <time>2020-09-18T21:22:40.083Z</time>
      </trkpt>
      <trkpt lat="48.33882" lon="7.1047">
        <ele>539.50273</ele>
        <time>2020-09-18T21:22:41.244Z</time>
      </trkpt>
      <trkpt lat="48.33863" lon="7.10471">
        <ele>539.041849</ele>
        <time>2020-09-18T21:22:43.282Z</time>
      </trkpt>
      <trkpt lat="48.33822" lon="7.10438">
        <ele>537.932809</ele>
        <time>2020-09-18T21:22:48.253Z</time>
      </trkpt>
      <trkpt lat="48.33801" lon="7.10437">
        <ele>537.42598</ele>
        <time>2020-09-18T21:22:50.625Z</time>
      </trkpt>
      <trkpt lat="48.33788" lon="7.10447">
        <ele>537.091579</ele>
        <time>2020-09-18T21:22:52.106Z</time>
      </trkpt>
      <trkpt lat="48.3378" lon="7.10463">
        <ele>536.773959</ele>
        <time>2020-09-18T21:22:53.512Z</time>
      </trkpt>
      <trkpt lat="48.33763" lon="7.10524">
        <ele>535.726429</ele>
        <time>2020-09-18T21:22:58.295Z</time>
      </trkpt>
      <trkpt lat="48.33743" lon="7.10542">
        <ele>535.18227</ele>
        <time>2020-09-18T21:23:00.702Z</time>
      </trkpt>
      <trkpt lat="48.33718" lon="7.10536">
        <ele>534.580291</ele>
        <time>2020-09-18T21:23:03.495Z</time>
      </trkpt>
      <trkpt lat="48.33703" lon="7.10512">
        <ele>534.050248</ele>
        <time>2020-09-18T21:23:05.904Z</time>
      </trkpt>
      <trkpt lat="48.337" lon="7.105">
        <ele>533.799595</ele>
        <time>2020-09-18T21:23:06.850Z</time>
      </trkpt>
      <trkpt lat="48.33699" lon="7.10476">
        <ele>533.348124</ele>
        <time>2020-09-18T21:23:08.418Z</time>
      </trkpt>
      <trkpt lat="48.33708" lon="7.10298">
        <ele>529.853049</ele>
        <time>2020-09-18T21:23:20.766Z</time>
      </trkpt>
      <trkpt lat="48.33698" lon="7.10259">
        <ele>529.043937</ele>
        <time>2020-09-18T21:23:23.499Z</time>
      </trkpt>
      <trkpt lat="48.33661" lon="7.10225">
        <ele>527.444321</ele>
        <time>2020-09-18T21:23:27.883Z</time>
      </trkpt>
      <trkpt lat="48.33647" lon="7.10204">
        <ele>526.687673</ele>
        <time>2020-09-18T21:23:29.812Z</time>
      </trkpt>
      <trkpt lat="48.33645" lon="7.10176">
        <ele>525.963355</ele>
        <time>2020-09-18T21:23:31.657Z</time>
      </trkpt>
      <trkpt lat="48.33653" lon="7.10096">
        <ele>523.871692</ele>
        <time>2020-09-18T21:23:36.924Z</time>
      </trkpt>
      <trkpt lat="48.33635" lon="7.09966">
        <ele>520.331614</ele>
        <time>2020-09-18T21:23:45.505Z</time>
      </trkpt>
      <trkpt lat="48.33625" lon="7.09932">
        <ele>519.317807</ele>
        <time>2020-09-18T21:23:47.867Z</time>
      </trkpt>
      <trkpt lat="48.33576" lon="7.09852">
        <ele>516.322772</ele>
        <time>2020-09-18T21:23:54.892Z</time>
      </trkpt>
      <trkpt lat="48.33554" lon="7.09843">
        <ele>515.352792</ele>
        <time>2020-09-18T21:23:57.169Z</time>
      </trkpt>
      <trkpt lat="48.33512" lon="7.0985">
        <ele>514.000827</ele>
        <time>2020-09-18T21:24:01.165Z</time>
      </trkpt>
      <trkpt lat="48.33495" lon="7.09846">
        <ele>513.689853</ele>
        <time>2020-09-18T21:24:02.942Z</time>
      </trkpt>
      <trkpt lat="48.3347" lon="7.09818">
        <ele>513.11669</ele>
        <time>2020-09-18T21:24:06.175Z</time>
      </trkpt>
      <trkpt lat="48.33435" lon="7.09759">
        <ele>512.1556</ele>
        <time>2020-09-18T21:24:13.185Z</time>
      </trkpt>
      <trkpt lat="48.33432" lon="7.09754">
        <ele>512.068557</ele>
        <time>2020-09-18T21:24:13.616Z</time>
      </trkpt>
      <trkpt lat="48.33426" lon="7.09747">
        <ele>511.931759</ele>
        <time>2020-09-18T21:24:15.872Z</time>
      </trkpt>
      <trkpt lat="48.33393" lon="7.0973">
        <ele>511.302688</ele>
        <time>2020-09-18T21:24:20.128Z</time>
      </trkpt>
      <trkpt lat="48.33355" lon="7.09722">
        <ele>510.352214</ele>
        <time>2020-09-18T21:24:24.745Z</time>
      </trkpt>
      <trkpt lat="48.33331" lon="7.09717">
        <ele>509.651472</ele>
        <time>2020-09-18T21:24:27.472Z</time>
      </trkpt>
      <trkpt lat="48.33294" lon="7.09701">
        <ele>508.521188</ele>
        <time>2020-09-18T21:24:31.633Z</time>
      </trkpt>
      <trkpt lat="48.33287" lon="7.09695">
        <ele>508.30299</ele>
        <time>2020-09-18T21:24:33.498Z</time>
      </trkpt>
      <trkpt lat="48.33282" lon="7.09689">
        <ele>508.111562</ele>
        <time>2020-09-18T21:24:34.093Z</time>
      </trkpt>
      <trkpt lat="48.33187" lon="7.09504">
        <ele>501.50909</ele>
        <time>2020-09-18T21:24:49.085Z</time>
      </trkpt>
      <trkpt lat="48.3315" lon="7.09339">
        <ele>495.314464</ele>
        <time>2020-09-18T21:24:59.544Z</time>
      </trkpt>
      <trkpt lat="48.33138" lon="7.09304">
        <ele>494.726732</ele>
        <time>2020-09-18T21:25:01.970Z</time>
      </trkpt>
      <trkpt lat="48.33108" lon="7.09276">
        <ele>493.91176</ele>
        <time>2020-09-18T21:25:05.421Z</time>
      </trkpt>
      <trkpt lat="48.33086" lon="7.0928">
        <ele>493.422653</ele>
        <time>2020-09-18T21:25:07.600Z</time>
      </trkpt>
      <trkpt lat="48.33072" lon="7.09307">
        <ele>492.894741</ele>
        <time>2020-09-18T21:25:10.032Z</time>
      </trkpt>
      <trkpt lat="48.33055" lon="7.09748">
        <ele>495.656573</ele>
        <time>2020-09-18T21:26:16.151Z</time>
      </trkpt>
      <trkpt lat="48.33044" lon="7.09786">
        <ele>496.098422</ele>
        <time>2020-09-18T21:26:23.384Z</time>
      </trkpt>
      <trkpt lat="48.33026" lon="7.09798">
        <ele>496.405403</ele>
        <time>2020-09-18T21:26:28.197Z</time>
      </trkpt>
      <trkpt lat="48.32997" lon="7.0979">
        <ele>496.859725</ele>
        <time>2020-09-18T21:26:34.994Z</time>
      </trkpt>
      <trkpt lat="48.32979" lon="7.09753">
        <ele>497.330774</ele>
        <time>2020-09-18T21:26:41.625Z</time>
      </trkpt>
      <trkpt lat="48.32906" lon="7.09509">
        <ele>495.504318</ele>
        <time>2020-09-18T21:27:04.023Z</time>
      </trkpt>
      <trkpt lat="48.32864" lon="7.09417">
        <ele>492.413001</ele>
        <time>2020-09-18T21:27:11.152Z</time>
      </trkpt>
      <trkpt lat="48.32762" lon="7.09285">
        <ele>485.014048</ele>
        <time>2020-09-18T21:27:23.450Z</time>
      </trkpt>
      <trkpt lat="48.32695" lon="7.09238">
        <ele>480.419928</ele>
        <time>2020-09-18T21:27:30.100Z</time>
      </trkpt>
      <trkpt lat="48.32667" lon="7.09227">
        <ele>478.585755</ele>
        <time>2020-09-18T21:27:32.784Z</time>
      </trkpt>
      <trkpt lat="48.32632" lon="7.09225">
        <ele>476.399098</ele>
        <time>2020-09-18T21:27:36.000Z</time>
      </trkpt>
      <trkpt lat="48.3235" lon="7.09271">
        <ele>458.138544</ele>
        <time>2020-09-18T21:28:02.035Z</time>
      </trkpt>
      <trkpt lat="48.3229" lon="7.0928">
        <ele>453.535331</ele>
        <time>2020-09-18T21:28:07.294Z</time>
      </trkpt>
      <trkpt lat="48.32215" lon="7.09319">
        <ele>447.589667</ele>
        <time>2020-09-18T21:28:14.297Z</time>
      </trkpt>
      <trkpt lat="48.3219" lon="7.09339">
        <ele>445.657003</ele>
        <time>2020-09-18T21:28:16.707Z</time>
      </trkpt>
      <trkpt lat="48.32159" lon="7.09367">
        <ele>443.168754</ele>
        <time>2020-09-18T21:28:19.886Z</time>
      </trkpt>
      <trkpt lat="48.32127" lon="7.09397">
        <ele>440.557238</ele>
        <time>2020-09-18T21:28:23.368Z</time>
      </trkpt>
      <trkpt lat="48.32111" lon="7.0941">
        <ele>439.243123</ele>
        <time>2020-09-18T21:28:25.124Z</time>
      </trkpt>
      <trkpt lat="48.32109" lon="7.09411">
        <ele>439.162</ele>
        <time>2020-09-18T21:28:25.233Z</time>
      </trkpt>
      <trkpt lat="48.32107" lon="7.0942">
        <ele>438.71807</ele>
        <time>2020-09-18T21:28:26.058Z</time>
      </trkpt>
      <trkpt lat="48.32079" lon="7.09489">
        <ele>436.320555</ele>
        <time>2020-09-18T21:28:33.419Z</time>
      </trkpt>
      <trkpt lat="48.3204" lon="7.09611">
        <ele>434.109042</ele>
        <time>2020-09-18T21:28:46.737Z</time>
      </trkpt>
      <trkpt lat="48.32014" lon="7.0966">
        <ele>433.090981</ele>
        <time>2020-09-18T21:28:54.488Z</time>
      </trkpt>
      <trkpt lat="48.31959" lon="7.0974">
        <ele>433.014548</ele>
        <time>2020-09-18T21:29:10.576Z</time>
      </trkpt>
      <trkpt lat="48.31947" lon="7.09768">
        <ele>433.160323</ele>
        <time>2020-09-18T21:29:16.012Z</time>
      </trkpt>
      <trkpt lat="48.31922" lon="7.09868">
        <ele>433.624229</ele>
        <time>2020-09-18T21:29:33.173Z</time>
      </trkpt>
      <trkpt lat="48.31906" lon="7.09894">
        <ele>433.777856</ele>
        <time>2020-09-18T21:29:38.510Z</time>
      </trkpt>
      <trkpt lat="48.31904" lon="7.09894">
        <ele>433.793316</ele>
        <time>2020-09-18T21:29:39.846Z</time>
      </trkpt>
      <trkpt lat="48.31898" lon="7.09897">
        <ele>433.840664</ele>
        <time>2020-09-18T21:29:41.125Z</time>
      </trkpt>
      <trkpt lat="48.3185" lon="7.09895">
        <ele>434.243819</ele>
        <time>2020-09-18T21:29:52.584Z</time>
      </trkpt>
      <trkpt lat="48.31811" lon="7.0991">
        <ele>434.588286</ele>
        <time>2020-09-18T21:30:02.653Z</time>
      </trkpt>
      <trkpt lat="48.31746" lon="7.09991">
        <ele>435.294621</ele>
        <time>2020-09-18T21:30:22.612Z</time>
      </trkpt>
      <trkpt lat="48.31729" lon="7.10022">
        <ele>435.148939</ele>
        <time>2020-09-18T21:30:28.024Z</time>
      </trkpt>
      <trkpt lat="48.31725" lon="7.10035">
        <ele>435.064225</ele>
        <time>2020-09-18T21:30:30.197Z</time>
      </trkpt>
      <trkpt lat="48.31711" lon="7.10117">
        <ele>434.6017</ele>
        <time>2020-09-18T21:30:40.954Z</time>
      </trkpt>
      <trkpt lat="48.31707" lon="7.10172">
        <ele>434.294255</ele>
        <time>2020-09-18T21:30:47.549Z</time>
      </trkpt>
      <trkpt lat="48.31676" lon="7.10323">
        <ele>432.125828</ele>
        <time>2020-09-18T21:31:04.012Z</time>
      </trkpt>
      <trkpt lat="48.31653" lon="7.10387">
        <ele>430.489885</ele>
        <time>2020-09-18T21:31:10.906Z</time>
      </trkpt>
      <trkpt lat="48.31607" lon="7.10485">
        <ele>427.79211</ele>
        <time>2020-09-18T21:31:21.971Z</time>
      </trkpt>
      <trkpt lat="48.31595" lon="7.10622">
        <ele>424.927348</ele>
        <time>2020-09-18T21:31:34.892Z</time>
      </trkpt>
      <trkpt lat="48.31596" lon="7.1071">
        <ele>423.097634</ele>
        <time>2020-09-18T21:31:43.750Z</time>
      </trkpt>
      <trkpt lat="48.31591" lon="7.10728">
        <ele>422.702531</ele>
        <time>2020-09-18T21:31:45.767Z</time>
      </trkpt>
      <trkpt lat="48.31585" lon="7.10734">
        <ele>422.483041</ele>
        <time>2020-09-18T21:31:46.784Z</time>
      </trkpt>
      <trkpt lat="48.31586" lon="7.10737">
        <ele>422.407402</ele>
        <time>2020-09-18T21:31:47.305Z</time>
      </trkpt>
      <trkpt lat="48.31605" lon="7.10813">
        <ele>421.955041</ele>
        <time>2020-09-18T21:31:53.752Z</time>
      </trkpt>
      <trkpt lat="48.31631" lon="7.10869">
        <ele>421.7627</ele>
        <time>2020-09-18T21:31:59.861Z</time>
      </trkpt>
      <trkpt lat="48.31635" lon="7.10879">
        <ele>421.730186</ele>
        <time>2020-09-18T21:32:00.831Z</time>
      </trkpt>
      <trkpt lat="48.31672" lon="7.10969">
        <ele>421.436147</ele>
        <time>2020-09-18T21:32:11.799Z</time>
      </trkpt>
      <trkpt lat="48.31673" lon="7.10986">
        <ele>421.394678</ele>
        <time>2020-09-18T21:32:13.722Z</time>
      </trkpt>
      <trkpt lat="48.31674" lon="7.1099">
        <ele>421.414861</ele>
        <time>2020-09-18T21:32:14.170Z</time>
      </trkpt>
      <trkpt lat="48.31672" lon="7.10999">
        <ele>421.46705</ele>
        <time>2020-09-18T21:32:15.299Z</time>
      </trkpt>
      <trkpt lat="48.3167" lon="7.11011">
        <ele>421.537704</ele>
        <time>2020-09-18T21:32:16.762Z</time>
      </trkpt>
      <trkpt lat="48.31645" lon="7.11052">
        <ele>421.843622</ele>
        <time>2020-09-18T21:32:23.435Z</time>
      </trkpt>
      <trkpt lat="48.31639" lon="7.11066">
        <ele>421.938039</ele>
        <time>2020-09-18T21:32:25.428Z</time>
      </trkpt>
      <trkpt lat="48.31633" lon="7.11141">
        <ele>422.351349</ele>
        <time>2020-09-18T21:32:34.755Z</time>
      </trkpt>
      <trkpt lat="48.31636" lon="7.11164">
        <ele>422.48459</ele>
        <time>2020-09-18T21:32:37.491Z</time>
      </trkpt>
      <trkpt lat="48.31643" lon="7.11181">
        <ele>422.590525</ele>
        <time>2020-09-18T21:32:39.933Z</time>
      </trkpt>
      <trkpt lat="48.31649" lon="7.11195">
        <ele>422.682178</ele>
        <time>2020-09-18T21:32:42.145Z</time>
      </trkpt>
      <trkpt lat="48.31656" lon="7.11213">
        <ele>422.800919</ele>
        <time>2020-09-18T21:32:44.490Z</time>
      </trkpt>
      <trkpt lat="48.31658" lon="7.11227">
        <ele>422.878843</ele>
        <time>2020-09-18T21:32:46.220Z</time>
      </trkpt>
      <trkpt lat="48.31659" lon="7.1123">
        <ele>422.902713</ele>
        <time>2020-09-18T21:32:46.580Z</time>
      </trkpt>
      <trkpt lat="48.3166" lon="7.11253">
        <ele>423.15802</ele>
        <time>2020-09-18T21:32:49.817Z</time>
      </trkpt>
      <trkpt lat="48.3166" lon="7.11291">
        <ele>423.558546</ele>
        <time>2020-09-18T21:32:54.741Z</time>
      </trkpt>
      <trkpt lat="48.31664" lon="7.11347">
        <ele>424.154974</ele>
        <time>2020-09-18T21:33:02.542Z</time>
      </trkpt>
      <trkpt lat="48.31692" lon="7.11438">
        <ele>425.230173</ele>
        <time>2020-09-18T21:33:16.812Z</time>
      </trkpt>
      <trkpt lat="48.31699" lon="7.11463">
        <ele>425.509168</ele>
        <time>2020-09-18T21:33:20.649Z</time>
      </trkpt>
      <trkpt lat="48.31715" lon="7.11523">
        <ele>426.963403</ele>
        <time>2020-09-18T21:33:30.155Z</time>
      </trkpt>
      <trkpt lat="48.3173" lon="7.11585">
        <ele>428.902133</ele>
        <time>2020-09-18T21:33:43.595Z</time>
      </trkpt>
      <trkpt lat="48.31733" lon="7.11633">
        <ele>430.324759</ele>
        <time>2020-09-18T21:33:54.099Z</time>
      </trkpt>
      <trkpt lat="48.31717" lon="7.11707">
        <ele>432.618486</ele>
        <time>2020-09-18T21:34:13.442Z</time>
      </trkpt>
      <trkpt lat="48.31717" lon="7.11714">
        <ele>432.798296</ele>
        <time>2020-09-18T21:34:14.874Z</time>
      </trkpt>
      <trkpt lat="48.31717" lon="7.11718">
        <ele>432.930597</ele>
        <time>2020-09-18T21:34:16.056Z</time>
      </trkpt>
      <trkpt lat="48.31718" lon="7.11731">
        <ele>433.306295</ele>
        <time>2020-09-18T21:34:18.954Z</time>
      </trkpt>
      <trkpt lat="48.31723" lon="7.11754">
        <ele>434.11674</ele>
        <time>2020-09-18T21:34:26.085Z</time>
      </trkpt>
      <trkpt lat="48.31745" lon="7.11836">
        <ele>437.48026</ele>
        <time>2020-09-18T21:34:49.777Z</time>
      </trkpt>
      <trkpt lat="48.31761" lon="7.11941">
        <ele>441.575171</ele>
        <time>2020-09-18T21:35:19.528Z</time>
      </trkpt>
      <trkpt lat="48.31785" lon="7.12054">
        <ele>444.560041</ele>
        <time>2020-09-18T21:35:45.458Z</time>
      </trkpt>
      <trkpt lat="48.3185" lon="7.1222">
        <ele>446.561363</ele>
        <time>2020-09-18T21:36:07.942Z</time>
      </trkpt>
      <trkpt lat="48.31853" lon="7.12266">
        <ele>446.876292</ele>
        <time>2020-09-18T21:36:12.730Z</time>
      </trkpt>
      <trkpt lat="48.31844" lon="7.1232">
        <ele>447.077803</ele>
        <time>2020-09-18T21:36:17.867Z</time>
      </trkpt>
      <trkpt lat="48.3184" lon="7.12329">
        <ele>447.115118</ele>
        <time>2020-09-18T21:36:18.516Z</time>
      </trkpt>
      <trkpt lat="48.31837" lon="7.12336">
        <ele>447.145516</ele>
        <time>2020-09-18T21:36:20.156Z</time>
      </trkpt>
      <trkpt lat="48.31729" lon="7.12502">
        <ele>448.478515</ele>
        <time>2020-09-18T21:36:48.093Z</time>
      </trkpt>
      <trkpt lat="48.31665" lon="7.12617">
        <ele>450.24998</ele>
        <time>2020-09-18T21:37:12.113Z</time>
      </trkpt>
      <trkpt lat="48.3164" lon="7.12673">
        <ele>451.024151</ele>
        <time>2020-09-18T21:37:22.222Z</time>
      </trkpt>
      <trkpt lat="48.31533" lon="7.12967">
        <ele>453.67876</ele>
        <time>2020-09-18T21:38:07.966Z</time>
      </trkpt>
      <trkpt lat="48.31529" lon="7.12979">
        <ele>453.697361</ele>
        <time>2020-09-18T21:38:09.165Z</time>
      </trkpt>
      <trkpt lat="48.31527" lon="7.12993">
        <ele>453.719748</ele>
        <time>2020-09-18T21:38:10.623Z</time>
      </trkpt>
      <trkpt lat="48.31524" lon="7.13013">
        <ele>453.749385</ele>
        <time>2020-09-18T21:38:12.976Z</time>
      </trkpt>
      <trkpt lat="48.3152" lon="7.13044">
        <ele>453.796727</ele>
        <time>2020-09-18T21:38:15.963Z</time>
      </trkpt>
      <trkpt lat="48.31516" lon="7.131">
        <ele>453.880509</ele>
        <time>2020-09-18T21:38:21.335Z</time>
      </trkpt>
      <trkpt lat="48.31514" lon="7.13129">
        <ele>453.923424</ele>
        <time>2020-09-18T21:38:24.289Z</time>
      </trkpt>
      <trkpt lat="48.31513" lon="7.13147">
        <ele>453.951469</ele>
        <time>2020-09-18T21:38:25.744Z</time>
      </trkpt>
      <trkpt lat="48.31528" lon="7.13303">
        <ele>453.408222</ele>
        <time>2020-09-18T21:38:38.953Z</time>
      </trkpt>
      <trkpt lat="48.31526" lon="7.13358">
        <ele>453.187231</ele>
        <time>2020-09-18T21:38:43.391Z</time>
      </trkpt>
      <trkpt lat="48.31498" lon="7.13575">
        <ele>453.672438</ele>
        <time>2020-09-18T21:39:05.408Z</time>
      </trkpt>
      <trkpt lat="48.31485" lon="7.13612">
        <ele>453.892243</ele>
        <time>2020-09-18T21:39:10.955Z</time>
      </trkpt>
      <trkpt lat="48.31481" lon="7.13622">
        <ele>453.954136</ele>
        <time>2020-09-18T21:39:12.645Z</time>
      </trkpt>
      <trkpt lat="48.31438" lon="7.13717">
        <ele>455.073325</ele>
        <time>2020-09-18T21:39:29.652Z</time>
      </trkpt>
      <trkpt lat="48.31425" lon="7.13771">
        <ele>456.040005</ele>
        <time>2020-09-18T21:39:39.173Z</time>
      </trkpt>
      <trkpt lat="48.31421" lon="7.1384">
        <ele>457.195449</ele>
        <time>2020-09-18T21:39:51.120Z</time>
      </trkpt>
      <trkpt lat="48.3142" lon="7.13967">
        <ele>459.3068</ele>
        <time>2020-09-18T21:40:13.015Z</time>
      </trkpt>
      <trkpt lat="48.31429" lon="7.14046">
        <ele>460.68015</ele>
        <time>2020-09-18T21:40:26.839Z</time>
      </trkpt>
      <trkpt lat="48.31454" lon="7.14202">
        <ele>463.409553</ele>
        <time>2020-09-18T21:40:52.977Z</time>
      </trkpt>
      <trkpt lat="48.3151" lon="7.14363">
        <ele>467.37417</ele>
        <time>2020-09-18T21:41:23.086Z</time>
      </trkpt>
      <trkpt lat="48.3156" lon="7.14454">
        <ele>470.160455</ele>
        <time>2020-09-18T21:41:49.961Z</time>
      </trkpt>
      <trkpt lat="48.31569" lon="7.145">
        <ele>471.549382</ele>
        <time>2020-09-18T21:42:00.721Z</time>
      </trkpt>
      <trkpt lat="48.31566" lon="7.14553">
        <ele>473.077653</ele>
        <time>2020-09-18T21:42:13.187Z</time>
      </trkpt>
      <trkpt lat="48.31556" lon="7.14599">
        <ele>474.464557</ele>
        <time>2020-09-18T21:42:23.972Z</time>
      </trkpt>
      <trkpt lat="48.31554" lon="7.14614">
        <ele>474.892793</ele>
        <time>2020-09-18T21:42:28.051Z</time>
      </trkpt>
      <trkpt lat="48.31556" lon="7.14671">
        <ele>476.535494</ele>
        <time>2020-09-18T21:42:39.284Z</time>
      </trkpt>
      <trkpt lat="48.31567" lon="7.14711">
        <ele>477.190821</ele>
        <time>2020-09-18T21:42:46.692Z</time>
      </trkpt>
      <trkpt lat="48.31592" lon="7.14775">
        <ele>477.447038</ele>
        <time>2020-09-18T21:42:58.845Z</time>
      </trkpt>
      <trkpt lat="48.31619" lon="7.14886">
        <ele>477.861345</ele>
        <time>2020-09-18T21:43:09.831Z</time>
      </trkpt>
      <trkpt lat="48.31656" lon="7.15069">
        <ele>477.414113</ele>
        <time>2020-09-18T21:43:23.918Z</time>
      </trkpt>
      <trkpt lat="48.3166" lon="7.15119">
        <ele>477.176138</ele>
        <time>2020-09-18T21:43:28.354Z</time>
      </trkpt>
      <trkpt lat="48.31659" lon="7.15129">
        <ele>477.128346</ele>
        <time>2020-09-18T21:43:29.192Z</time>
      </trkpt>
      <trkpt lat="48.31649" lon="7.15211">
        <ele>477.068459</ele>
        <time>2020-09-18T21:43:38.555Z</time>
      </trkpt>
      <trkpt lat="48.31643" lon="7.15252">
        <ele>478.175364</ele>
        <time>2020-09-18T21:43:44.215Z</time>
      </trkpt>
      <trkpt lat="48.31642" lon="7.15259">
        <ele>478.359302</ele>
        <time>2020-09-18T21:43:45.177Z</time>
      </trkpt>
      <trkpt lat="48.3164" lon="7.15274">
        <ele>478.766458</ele>
        <time>2020-09-18T21:43:48.002Z</time>
      </trkpt>
      <trkpt lat="48.31621" lon="7.15477">
        <ele>484.434976</ele>
        <time>2020-09-18T21:44:34.146Z</time>
      </trkpt>
      <trkpt lat="48.31609" lon="7.15528">
        <ele>487.288824</ele>
        <time>2020-09-18T21:44:50.149Z</time>
      </trkpt>
      <trkpt lat="48.31601" lon="7.15551">
        <ele>488.731016</ele>
        <time>2020-09-18T21:44:58.495Z</time>
      </trkpt>
      <trkpt lat="48.31537" lon="7.1565">
        <ele>496.070898</ele>
        <time>2020-09-18T21:45:45.983Z</time>
      </trkpt>
      <trkpt lat="48.31495" lon="7.1575">
        <ele>501.197831</ele>
        <time>2020-09-18T21:46:23.207Z</time>
      </trkpt>
      <trkpt lat="48.31485" lon="7.15776">
        <ele>502.325759</ele>
        <time>2020-09-18T21:46:33.052Z</time>
      </trkpt>
      <trkpt lat="48.31479" lon="7.15798">
        <ele>503.205831</ele>
        <time>2020-09-18T21:46:37.887Z</time>
      </trkpt>
      <trkpt lat="48.31472" lon="7.15853">
        <ele>505.311153</ele>
        <time>2020-09-18T21:46:51.521Z</time>
      </trkpt>
      <trkpt lat="48.31463" lon="7.16024">
        <ele>509.473083</ele>
        <time>2020-09-18T21:47:22.312Z</time>
      </trkpt>
      <trkpt lat="48.31445" lon="7.1613">
        <ele>510.669808</ele>
        <time>2020-09-18T21:47:33.518Z</time>
      </trkpt>
      <trkpt lat="48.31449" lon="7.1632">
        <ele>513.702672</ele>
        <time>2020-09-18T21:48:01.591Z</time>
      </trkpt>
      <trkpt lat="48.31452" lon="7.16411">
        <ele>515.449007</ele>
        <time>2020-09-18T21:48:17.352Z</time>
      </trkpt>
      <trkpt lat="48.31452" lon="7.16416">
        <ele>515.553057</ele>
        <time>2020-09-18T21:48:20.004Z</time>
      </trkpt>
      <trkpt lat="48.31461" lon="7.16536">
        <ele>518.61196</ele>
        <time>2020-09-18T21:48:45.295Z</time>
      </trkpt>
      <trkpt lat="48.3154" lon="7.16875">
        <ele>529.090357</ele>
        <time>2020-09-18T21:50:06.725Z</time>
      </trkpt>
      <trkpt lat="48.31549" lon="7.16945">
        <ele>530.990144</ele>
        <time>2020-09-18T21:50:19.586Z</time>
      </trkpt>
      <trkpt lat="48.31549" lon="7.16952">
        <ele>531.182105</ele>
        <time>2020-09-18T21:50:21.306Z</time>
      </trkpt>
      <trkpt lat="48.31549" lon="7.16965">
        <ele>531.534162</ele>
        <time>2020-09-18T21:50:24.415Z</time>
      </trkpt>
      <trkpt lat="48.31533" lon="7.17046">
        <ele>533.111308</ele>
        <time>2020-09-18T21:50:37.984Z</time>
      </trkpt>
      <trkpt lat="48.31531" lon="7.17065">
        <ele>533.390971</ele>
        <time>2020-09-18T21:50:42.245Z</time>
      </trkpt>
      <trkpt lat="48.31532" lon="7.17083">
        <ele>533.648305</ele>
        <time>2020-09-18T21:50:44.476Z</time>
      </trkpt>
      <trkpt lat="48.31535" lon="7.17096">
        <ele>533.8642</ele>
        <time>2020-09-18T21:50:46.602Z</time>
      </trkpt>
      <trkpt lat="48.31538" lon="7.17107">
        <ele>534.035193</ele>
        <time>2020-09-18T21:50:48.582Z</time>
      </trkpt>
      <trkpt lat="48.31544" lon="7.17116">
        <ele>534.213163</ele>
        <time>2020-09-18T21:50:51.251Z</time>
      </trkpt>
      <trkpt lat="48.31565" lon="7.17135">
        <ele>534.752701</ele>
        <time>2020-09-18T21:50:56.008Z</time>
      </trkpt>
      <trkpt lat="48.31631" lon="7.17142">
        <ele>536.210798</ele>
        <time>2020-09-18T21:51:10.669Z</time>
      </trkpt>
      <trkpt lat="48.31665" lon="7.17155">
        <ele>537.021904</ele>
        <time>2020-09-18T21:51:18.059Z</time>
      </trkpt>
      <trkpt lat="48.31716" lon="7.17192">
        <ele>538.300161</ele>
        <time>2020-09-18T21:51:30.625Z</time>
      </trkpt>
      <trkpt lat="48.31829" lon="7.17259">
        <ele>541.632591</ele>
        <time>2020-09-18T21:52:01.797Z</time>
      </trkpt>
      <trkpt lat="48.31878" lon="7.17304">
        <ele>543.951056</ele>
        <time>2020-09-18T21:52:19.169Z</time>
      </trkpt>
      <trkpt lat="48.31915" lon="7.17365">
        <ele>546.140371</ele>
        <time>2020-09-18T21:52:36.905Z</time>
      </trkpt>
      <trkpt lat="48.31939" lon="7.17415">
        <ele>547.841382</ele>
        <time>2020-09-18T21:52:51.511Z</time>
      </trkpt>
      <trkpt lat="48.32026" lon="7.17588">
        <ele>554.400863</ele>
        <time>2020-09-18T21:53:41.208Z</time>
      </trkpt>
      <trkpt lat="48.32068" lon="7.17674">
        <ele>556.938728</ele>
        <time>2020-09-18T21:54:01.600Z</time>
      </trkpt>
      <trkpt lat="48.32091" lon="7.17722">
        <ele>558.073839</ele>
        <time>2020-09-18T21:54:12.018Z</time>
      </trkpt>
      <trkpt lat="48.32112" lon="7.17764">
        <ele>559.072394</ele>
        <time>2020-09-18T21:54:20.749Z</time>
      </trkpt>
      <trkpt lat="48.32127" lon="7.17803">
        <ele>559.920513</ele>
        <time>2020-09-18T21:54:27.821Z</time>
      </trkpt>
      <trkpt lat="48.32137" lon="7.17848">
        <ele>560.813101</ele>
        <time>2020-09-18T21:54:35.356Z</time>
      </trkpt>
      <trkpt lat="48.32142" lon="7.17916">
        <ele>561.900743</ele>
        <time>2020-09-18T21:54:46.500Z</time>
      </trkpt>
      <trkpt lat="48.32107" lon="7.18219">
        <ele>565.508948</ele>
        <time>2020-09-18T21:55:36.534Z</time>
      </trkpt>
      <trkpt lat="48.32116" lon="7.18249">
        <ele>565.626002</ele>
        <time>2020-09-18T21:55:39.710Z</time>
      </trkpt>
      <trkpt lat="48.32134" lon="7.18257">
        <ele>565.723914</ele>
        <time>2020-09-18T21:55:43.025Z</time>
      </trkpt>
      <trkpt lat="48.3214" lon="7.18254">
        <ele>565.756887</ele>
        <time>2020-09-18T21:55:44.005Z</time>
      </trkpt>
      <trkpt lat="48.32145" lon="7.18248">
        <ele>565.791287</ele>
        <time>2020-09-18T21:55:44.670Z</time>
      </trkpt>
      <trkpt lat="48.32177" lon="7.18119">
        <ele>565.719864</ele>
        <time>2020-09-18T21:55:56.149Z</time>
      </trkpt>
      <trkpt lat="48.32225" lon="7.17964">
        <ele>564.357605</ele>
        <time>2020-09-18T21:56:09.010Z</time>
      </trkpt>
      <trkpt lat="48.32286" lon="7.17927">
        <ele>563.779406</ele>
        <time>2020-09-18T21:56:17.876Z</time>
      </trkpt>
      <trkpt lat="48.32305" lon="7.17898">
        <ele>563.63133</ele>
        <time>2020-09-18T21:56:21.572Z</time>
      </trkpt>
      <trkpt lat="48.32311" lon="7.17875">
        <ele>563.540685</ele>
        <time>2020-09-18T21:56:23.703Z</time>
      </trkpt>
      <trkpt lat="48.32304" lon="7.17843">
        <ele>563.420053</ele>
        <time>2020-09-18T21:56:26.516Z</time>
      </trkpt>
      <trkpt lat="48.32256" lon="7.17816">
        <ele>563.142971</ele>
        <time>2020-09-18T21:56:32.918Z</time>
      </trkpt>
      <trkpt lat="48.3225" lon="7.17808">
        <ele>563.099092</ele>
        <time>2020-09-18T21:56:33.988Z</time>
      </trkpt>
      <trkpt lat="48.32247" lon="7.17736">
        <ele>563.474367</ele>
        <time>2020-09-18T21:56:41.080Z</time>
      </trkpt>
      <trkpt lat="48.32242" lon="7.17722">
        <ele>563.684458</ele>
        <time>2020-09-18T21:56:42.677Z</time>
      </trkpt>
      <trkpt lat="48.32218" lon="7.17689">
        <ele>564.352749</ele>
        <time>2020-09-18T21:56:48.091Z</time>
      </trkpt>
      <trkpt lat="48.32208" lon="7.17664">
        <ele>564.746071</ele>
        <time>2020-09-18T21:56:51.267Z</time>
      </trkpt>
      <trkpt lat="48.32145" lon="7.17441">
        <ele>571.936091</ele>
        <time>2020-09-18T21:57:39.434Z</time>
      </trkpt>
      <trkpt lat="48.32144" lon="7.17393">
        <ele>574.415247</ele>
        <time>2020-09-18T21:57:56.505Z</time>
      </trkpt>
      <trkpt lat="48.32155" lon="7.17367">
        <ele>576.042584</ele>
        <time>2020-09-18T21:58:06.972Z</time>
      </trkpt>
      <trkpt lat="48.32218" lon="7.17338">
        <ele>581.356755</ele>
        <time>2020-09-18T21:58:44.600Z</time>
      </trkpt>
      <trkpt lat="48.32233" lon="7.17334">
        <ele>582.938208</ele>
        <time>2020-09-18T21:58:54.638Z</time>
      </trkpt>
      <trkpt lat="48.32243" lon="7.17333">
        <ele>584.105384</ele>
        <time>2020-09-18T21:59:01.997Z</time>
      </trkpt>
      <trkpt lat="48.32256" lon="7.17335">
        <ele>585.427479</ele>
        <time>2020-09-18T21:59:07.939Z</time>
      </trkpt>
      <trkpt lat="48.32299" lon="7.17365">
        <ele>590.574106</ele>
        <time>2020-09-18T21:59:38.910Z</time>
      </trkpt>
      <trkpt lat="48.3232" lon="7.17374">
        <ele>592.948408</ele>
        <time>2020-09-18T21:59:51.377Z</time>
      </trkpt>
      <trkpt lat="48.32344" lon="7.17363">
        <ele>595.639213</ele>
        <time>2020-09-18T22:00:08.114Z</time>
      </trkpt>
      <trkpt lat="48.32371" lon="7.17337">
        <ele>599.127532</ele>
        <time>2020-09-18T22:00:26.918Z</time>
      </trkpt>
      <trkpt lat="48.324" lon="7.17333">
        <ele>601.075013</ele>
        <time>2020-09-18T22:00:39.474Z</time>
      </trkpt>
      <trkpt lat="48.32433" lon="7.17339">
        <ele>602.752584</ele>
        <time>2020-09-18T22:00:52.124Z</time>
      </trkpt>
      <trkpt lat="48.32537" lon="7.17432">
        <ele>608.945408</ele>
        <time>2020-09-18T22:01:31.176Z</time>
      </trkpt>
      <trkpt lat="48.32585" lon="7.1751">
        <ele>609.471825</ele>
        <time>2020-09-18T22:01:46.084Z</time>
      </trkpt>
      <trkpt lat="48.32606" lon="7.17556">
        <ele>609.616137</ele>
        <time>2020-09-18T22:01:52.109Z</time>
      </trkpt>
      <trkpt lat="48.3261" lon="7.17571">
        <ele>609.65804</ele>
        <time>2020-09-18T22:01:53.481Z</time>
      </trkpt>
      <trkpt lat="48.32614" lon="7.17594">
        <ele>609.71706</ele>
        <time>2020-09-18T22:01:55.906Z</time>
      </trkpt>
      <trkpt lat="48.32616" lon="7.17731">
        <ele>608.696198</ele>
        <time>2020-09-18T22:02:06.247Z</time>
      </trkpt>
      <trkpt lat="48.32617" lon="7.17742">
        <ele>608.456238</ele>
        <time>2020-09-18T22:02:07.132Z</time>
      </trkpt>
      <trkpt lat="48.3262" lon="7.17761">
        <ele>608.063024</ele>
        <time>2020-09-18T22:02:08.546Z</time>
      </trkpt>
      <trkpt lat="48.32621" lon="7.17769">
        <ele>607.898665</ele>
        <time>2020-09-18T22:02:09.060Z</time>
      </trkpt>
      <trkpt lat="48.32663" lon="7.17909">
        <ele>604.771346</ele>
        <time>2020-09-18T22:02:19.537Z</time>
      </trkpt>
      <trkpt lat="48.32675" lon="7.18088">
        <ele>597.982783</ele>
        <time>2020-09-18T22:02:30.600Z</time>
      </trkpt>
      <trkpt lat="48.32686" lon="7.18139">
        <ele>595.889069</ele>
        <time>2020-09-18T22:02:33.813Z</time>
      </trkpt>
      <trkpt lat="48.32688" lon="7.18145">
        <ele>595.612201</ele>
        <time>2020-09-18T22:02:34.204Z</time>
      </trkpt>
      <trkpt lat="48.32708" lon="7.18194">
        <ele>593.34958</ele>
        <time>2020-09-18T22:02:37.677Z</time>
      </trkpt>
      <trkpt lat="48.3272" lon="7.18224">
        <ele>592.010413</ele>
        <time>2020-09-18T22:02:39.881Z</time>
      </trkpt>
      <trkpt lat="48.32725" lon="7.18241">
        <ele>591.292913</ele>
        <time>2020-09-18T22:02:40.962Z</time>
      </trkpt>
      <trkpt lat="48.32727" lon="7.1825">
        <ele>590.898351</ele>
        <time>2020-09-18T22:02:41.577Z</time>
      </trkpt>
      <trkpt lat="48.32735" lon="7.183">
        <ele>588.933278</ele>
        <time>2020-09-18T22:02:44.695Z</time>
      </trkpt>
      <trkpt lat="48.32743" lon="7.18507">
        <ele>580.621998</ele>
        <time>2020-09-18T22:02:57.659Z</time>
      </trkpt>
      <trkpt lat="48.32758" lon="7.18648">
        <ele>574.331127</ele>
        <time>2020-09-18T22:03:06.320Z</time>
      </trkpt>
      <trkpt lat="48.32762" lon="7.18688">
        <ele>572.53747</ele>
        <time>2020-09-18T22:03:08.788Z</time>
      </trkpt>
      <trkpt lat="48.32764" lon="7.18702">
        <ele>571.913446</ele>
        <time>2020-09-18T22:03:09.595Z</time>
      </trkpt>
      <trkpt lat="48.32794" lon="7.18892">
        <ele>560.170781</ele>
        <time>2020-09-18T22:03:20.893Z</time>
      </trkpt>
      <trkpt lat="48.328" lon="7.19038">
        <ele>551.422431</ele>
        <time>2020-09-18T22:03:29.346Z</time>
      </trkpt>
      <trkpt lat="48.32804" lon="7.19086">
        <ele>548.66791</ele>
        <time>2020-09-18T22:03:32.149Z</time>
      </trkpt>
      <trkpt lat="48.32814" lon="7.19125">
        <ele>546.292613</ele>
        <time>2020-09-18T22:03:34.572Z</time>
      </trkpt>
      <trkpt lat="48.32935" lon="7.19497">
        <ele>526.176949</ele>
        <time>2020-09-18T22:03:59.162Z</time>
      </trkpt>
      <trkpt lat="48.32983" lon="7.19565">
        <ele>524.286106</ele>
        <time>2020-09-18T22:04:05.747Z</time>
      </trkpt>
      <trkpt lat="48.33013" lon="7.19619">
        <ele>522.967315</ele>
        <time>2020-09-18T22:04:10.811Z</time>
      </trkpt>
      <trkpt lat="48.33019" lon="7.19623">
        <ele>522.779229</ele>
        <time>2020-09-18T22:04:11.612Z</time>
      </trkpt>
      <trkpt lat="48.33036" lon="7.19617">
        <ele>522.280187</ele>
        <time>2020-09-18T22:04:13.769Z</time>
      </trkpt>
      <trkpt lat="48.33084" lon="7.19522">
        <ele>520.888173</ele>
        <time>2020-09-18T22:04:26.299Z</time>
      </trkpt>
      <trkpt lat="48.33178" lon="7.19367">
        <ele>518.718081</ele>
        <time>2020-09-18T22:04:43.150Z</time>
      </trkpt>
      <trkpt lat="48.33233" lon="7.19293">
        <ele>514.111717</ele>
        <time>2020-09-18T22:04:50.125Z</time>
      </trkpt>
      <trkpt lat="48.33251" lon="7.19281">
        <ele>512.853748</ele>
        <time>2020-09-18T22:04:51.999Z</time>
      </trkpt>
      <trkpt lat="48.33259" lon="7.19283">
        <ele>512.368574</ele>
        <time>2020-09-18T22:04:52.675Z</time>
      </trkpt>
      <trkpt lat="48.33264" lon="7.19288">
        <ele>511.974182</ele>
        <time>2020-09-18T22:04:53.192Z</time>
      </trkpt>
      <trkpt lat="48.33271" lon="7.19308">
        <ele>511.033812</ele>
        <time>2020-09-18T22:04:54.592Z</time>
      </trkpt>
      <trkpt lat="48.33255" lon="7.1943">
        <ele>505.025506</ele>
        <time>2020-09-18T22:05:01.798Z</time>
      </trkpt>
      <trkpt lat="48.33257" lon="7.19462">
        <ele>503.219167</ele>
        <time>2020-09-18T22:05:03.631Z</time>
      </trkpt>
      <trkpt lat="48.33262" lon="7.19483">
        <ele>501.967372</ele>
        <time>2020-09-18T22:05:04.900Z</time>
      </trkpt>
      <trkpt lat="48.33269" lon="7.19513">
        <ele>500.156139</ele>
        <time>2020-09-18T22:05:06.730Z</time>
      </trkpt>
      <trkpt lat="48.33271" lon="7.19547">
        <ele>498.225913</ele>
        <time>2020-09-18T22:05:08.741Z</time>
      </trkpt>
      <trkpt lat="48.33263" lon="7.19578">
        <ele>496.381461</ele>
        <time>2020-09-18T22:05:10.690Z</time>
      </trkpt>
      <trkpt lat="48.33197" lon="7.19676">
        <ele>490.41781</ele>
        <time>2020-09-18T22:05:19.107Z</time>
      </trkpt>
      <trkpt lat="48.33141" lon="7.19801">
        <ele>485.694536</ele>
        <time>2020-09-18T22:05:28.941Z</time>
      </trkpt>
      <trkpt lat="48.33069" lon="7.19891">
        <ele>481.335245</ele>
        <time>2020-09-18T22:05:38.189Z</time>
      </trkpt>
      <trkpt lat="48.33064" lon="7.1993">
        <ele>480.123168</ele>
        <time>2020-09-18T22:05:40.727Z</time>
      </trkpt>
      <trkpt lat="48.33069" lon="7.20014">
        <ele>477.510668</ele>
        <time>2020-09-18T22:05:46.127Z</time>
      </trkpt>
      <trkpt lat="48.33068" lon="7.20027">
        <ele>477.135399</ele>
        <time>2020-09-18T22:05:46.884Z</time>
      </trkpt>
      <trkpt lat="48.33057" lon="7.2014">
        <ele>472.145766</ele>
        <time>2020-09-18T22:05:53.874Z</time>
      </trkpt>
      <trkpt lat="48.33057" lon="7.20181">
        <ele>470.11542</ele>
        <time>2020-09-18T22:05:56.331Z</time>
      </trkpt>
      <trkpt lat="48.33069" lon="7.20354">
        <ele>461.412218</ele>
        <time>2020-09-18T22:06:06.506Z</time>
      </trkpt>
      <trkpt lat="48.33066" lon="7.20455">
        <ele>456.228843</ele>
        <time>2020-09-18T22:06:12.465Z</time>
      </trkpt>
      <trkpt lat="48.33061" lon="7.20484">
        <ele>454.695378</ele>
        <time>2020-09-18T22:06:14.219Z</time>
      </trkpt>
      <trkpt lat="48.33056" lon="7.20505">
        <ele>453.574307</ele>
        <time>2020-09-18T22:06:15.552Z</time>
      </trkpt>
      <trkpt lat="48.33041" lon="7.20543">
        <ele>451.31595</ele>
        <time>2020-09-18T22:06:18.178Z</time>
      </trkpt>
      <trkpt lat="48.33018" lon="7.20573">
        <ele>448.943292</ele>
        <time>2020-09-18T22:06:20.945Z</time>
      </trkpt>
      <trkpt lat="48.32968" lon="7.20614">
        <ele>445.793882</ele>
        <time>2020-09-18T22:06:26.144Z</time>
      </trkpt>
      <trkpt lat="48.32826" lon="7.20707">
        <ele>437.620597</ele>
        <time>2020-09-18T22:06:40.803Z</time>
      </trkpt>
      <trkpt lat="48.32755" lon="7.20726">
        <ele>434.231019</ele>
        <time>2020-09-18T22:06:47.819Z</time>
      </trkpt>
      <trkpt lat="48.32703" lon="7.20729">
        <ele>431.791886</ele>
        <time>2020-09-18T22:06:52.668Z</time>
      </trkpt>
      <trkpt lat="48.32687" lon="7.2073">
        <ele>431.046929</ele>
        <time>2020-09-18T22:06:54.133Z</time>
      </trkpt>
      <trkpt lat="48.3268" lon="7.2073">
        <ele>430.674415</ele>
        <time>2020-09-18T22:06:54.885Z</time>
      </trkpt>
      <trkpt lat="48.32666" lon="7.20737">
        <ele>429.952919</ele>
        <time>2020-09-18T22:06:56.268Z</time>
      </trkpt>
      <trkpt lat="48.32648" lon="7.20756">
        <ele>428.848779</ele>
        <time>2020-09-18T22:06:58.311Z</time>
      </trkpt>
      <trkpt lat="48.32636" lon="7.20776">
        <ele>427.960459</ele>
        <time>2020-09-18T22:06:59.998Z</time>
      </trkpt>
      <trkpt lat="48.32623" lon="7.20807">
        <ele>426.744074</ele>
        <time>2020-09-18T22:07:02.282Z</time>
      </trkpt>
      <trkpt lat="48.32613" lon="7.20839">
        <ele>425.547441</ele>
        <time>2020-09-18T22:07:04.503Z</time>
      </trkpt>
      <trkpt lat="48.32596" lon="7.20953">
        <ele>421.622454</ele>
        <time>2020-09-18T22:07:11.884Z</time>
      </trkpt>
      <trkpt lat="48.3259" lon="7.21012">
        <ele>419.980976</ele>
        <time>2020-09-18T22:07:15.619Z</time>
      </trkpt>
      <trkpt lat="48.32591" lon="7.21084">
        <ele>418.059658</ele>
        <time>2020-09-18T22:07:20.232Z</time>
      </trkpt>
      <trkpt lat="48.32591" lon="7.21107">
        <ele>417.438963</ele>
        <time>2020-09-18T22:07:21.773Z</time>
      </trkpt>
      <trkpt lat="48.32592" lon="7.21132">
        <ele>416.758876</ele>
        <time>2020-09-18T22:07:23.557Z</time>
      </trkpt>
      <trkpt lat="48.32594" lon="7.21148">
        <ele>416.345729</ele>
        <time>2020-09-18T22:07:24.606Z</time>
      </trkpt>
      <trkpt lat="48.32606" lon="7.21235">
        <ele>413.953544</ele>
        <time>2020-09-18T22:07:30.602Z</time>
      </trkpt>
      <trkpt lat="48.32607" lon="7.21244">
        <ele>413.706554</ele>
        <time>2020-09-18T22:07:31.244Z</time>
      </trkpt>
      <trkpt lat="48.32611" lon="7.21311">
        <ele>411.9007</ele>
        <time>2020-09-18T22:07:35.569Z</time>
      </trkpt>
      <trkpt lat="48.32618" lon="7.21329">
        <ele>411.376306</ele>
        <time>2020-09-18T22:07:36.774Z</time>
      </trkpt>
      <trkpt lat="48.3263" lon="7.2135">
        <ele>410.613629</ele>
        <time>2020-09-18T22:07:38.817Z</time>
      </trkpt>
      <trkpt lat="48.32663" lon="7.21407">
        <ele>408.603381</ele>
        <time>2020-09-18T22:07:43.599Z</time>
      </trkpt>
      <trkpt lat="48.32676" lon="7.21434">
        <ele>407.697828</ele>
        <time>2020-09-18T22:07:45.956Z</time>
      </trkpt>
      <trkpt lat="48.32678" lon="7.21445">
        <ele>407.396196</ele>
        <time>2020-09-18T22:07:46.636Z</time>
      </trkpt>
      <trkpt lat="48.32681" lon="7.21457">
        <ele>407.071782</ele>
        <time>2020-09-18T22:07:47.401Z</time>
      </trkpt>
      <trkpt lat="48.32685" lon="7.21518">
        <ele>405.564058</ele>
        <time>2020-09-18T22:07:51.462Z</time>
      </trkpt>
      <trkpt lat="48.32691" lon="7.21632">
        <ele>402.814547</ele>
        <time>2020-09-18T22:07:58.880Z</time>
      </trkpt>
      <trkpt lat="48.32697" lon="7.21678">
        <ele>401.695153</ele>
        <time>2020-09-18T22:08:01.933Z</time>
      </trkpt>
      <trkpt lat="48.32719" lon="7.21795">
        <ele>399.156816</ele>
        <time>2020-09-18T22:08:10.584Z</time>
      </trkpt>
      <trkpt lat="48.32722" lon="7.21857">
        <ele>398.017836</ele>
        <time>2020-09-18T22:08:14.952Z</time>
      </trkpt>
      <trkpt lat="48.3272" lon="7.21937">
        <ele>396.548985</ele>
        <time>2020-09-18T22:08:20.536Z</time>
      </trkpt>
      <trkpt lat="48.32705" lon="7.22107">
        <ele>393.199666</ele>
        <time>2020-09-18T22:08:32.218Z</time>
      </trkpt>
      <trkpt lat="48.32702" lon="7.22244">
        <ele>390.4562</ele>
        <time>2020-09-18T22:08:41.539Z</time>
      </trkpt>
      <trkpt lat="48.32699" lon="7.22262">
        <ele>390.076157</ele>
        <time>2020-09-18T22:08:42.764Z</time>
      </trkpt>
      <trkpt lat="48.32691" lon="7.22281">
        <ele>389.721307</ele>
        <time>2020-09-18T22:08:44.286Z</time>
      </trkpt>
      <trkpt lat="48.32642" lon="7.22347">
        <ele>388.131534</ele>
        <time>2020-09-18T22:08:51.183Z</time>
      </trkpt>
      <trkpt lat="48.32627" lon="7.22369">
        <ele>387.622646</ele>
        <time>2020-09-18T22:08:53.390Z</time>
      </trkpt>
      <trkpt lat="48.32606" lon="7.22398">
        <ele>386.937172</ele>
        <time>2020-09-18T22:08:56.508Z</time>
      </trkpt>
      <trkpt lat="48.32589" lon="7.22435">
        <ele>386.213459</ele>
        <time>2020-09-18T22:08:59.730Z</time>
      </trkpt>
      <trkpt lat="48.32496" lon="7.22642">
        <ele>383.72107</ele>
        <time>2020-09-18T22:09:19.042Z</time>
      </trkpt>
      <trkpt lat="48.3249" lon="7.22649">
        <ele>383.623193</ele>
        <time>2020-09-18T22:09:19.825Z</time>
      </trkpt>
      <trkpt lat="48.32451" lon="7.22706">
        <ele>382.989389</ele>
        <time>2020-09-18T22:09:26.793Z</time>
      </trkpt>
      <trkpt lat="48.3241" lon="7.22794">
        <ele>382.310793</ele>
        <time>2020-09-18T22:09:35.632Z</time>
      </trkpt>
      <trkpt lat="48.3239" lon="7.22911">
        <ele>381.547486</ele>
        <time>2020-09-18T22:09:45.851Z</time>
      </trkpt>
      <trkpt lat="48.32391" lon="7.22976">
        <ele>380.677036</ele>
        <time>2020-09-18T22:09:50.968Z</time>
      </trkpt>
      <trkpt lat="48.32389" lon="7.22986">
        <ele>380.538126</ele>
        <time>2020-09-18T22:09:51.676Z</time>
      </trkpt>
      <trkpt lat="48.32385" lon="7.23001">
        <ele>380.318184</ele>
        <time>2020-09-18T22:09:52.912Z</time>
      </trkpt>
      <trkpt lat="48.32356" lon="7.23051">
        <ele>379.417872</ele>
        <time>2020-09-18T22:09:57.854Z</time>
      </trkpt>
      <trkpt lat="48.32337" lon="7.23098">
        <ele>378.673822</ele>
        <time>2020-09-18T22:10:01.789Z</time>
      </trkpt>
      <trkpt lat="48.32314" lon="7.23177">
        <ele>377.114238</ele>
        <time>2020-09-18T22:10:07.743Z</time>
      </trkpt>
      <trkpt lat="48.32301" lon="7.23293">
        <ele>373.821773</ele>
        <time>2020-09-18T22:10:15.424Z</time>
      </trkpt>
      <trkpt lat="48.32312" lon="7.23394">
        <ele>370.973597</ele>
        <time>2020-09-18T22:10:21.900Z</time>
      </trkpt>
      <trkpt lat="48.32318" lon="7.23413">
        <ele>370.380946</ele>
        <time>2020-09-18T22:10:23.225Z</time>
      </trkpt>
      <trkpt lat="48.32364" lon="7.23486">
        <ele>366.983502</ele>
        <time>2020-09-18T22:10:29.474Z</time>
      </trkpt>
      <trkpt lat="48.324" lon="7.23542">
        <ele>364.326523</ele>
        <time>2020-09-18T22:10:34.321Z</time>
      </trkpt>
      <trkpt lat="48.32417" lon="7.23579">
        <ele>362.776073</ele>
        <time>2020-09-18T22:10:37.145Z</time>
      </trkpt>
      <trkpt lat="48.32422" lon="7.23595">
        <ele>362.196189</ele>
        <time>2020-09-18T22:10:38.180Z</time>
      </trkpt>
      <trkpt lat="48.32424" lon="7.23605">
        <ele>361.823748</ele>
        <time>2020-09-18T22:10:38.877Z</time>
      </trkpt>
      <trkpt lat="48.32456" lon="7.23764">
        <ele>357.475567</ele>
        <time>2020-09-18T22:10:49.594Z</time>
      </trkpt>
      <trkpt lat="48.32473" lon="7.23873">
        <ele>354.68493</ele>
        <time>2020-09-18T22:10:57.064Z</time>
      </trkpt>
      <trkpt lat="48.32484" lon="7.24022">
        <ele>352.755876</ele>
        <time>2020-09-18T22:11:07.931Z</time>
      </trkpt>
      <trkpt lat="48.32502" lon="7.24135">
        <ele>351.400244</ele>
        <time>2020-09-18T22:11:17.111Z</time>
      </trkpt>
      <trkpt lat="48.32505" lon="7.24183">
        <ele>351.048781</ele>
        <time>2020-09-18T22:11:21.004Z</time>
      </trkpt>
      <trkpt lat="48.32511" lon="7.2441">
        <ele>349.940767</ele>
        <time>2020-09-18T22:11:40.799Z</time>
      </trkpt>
      <trkpt lat="48.32511" lon="7.24471">
        <ele>349.482944</ele>
        <time>2020-09-18T22:11:46.082Z</time>
      </trkpt>
      <trkpt lat="48.32499" lon="7.24662">
        <ele>347.922781</ele>
        <time>2020-09-18T22:12:01.391Z</time>
      </trkpt>
      <trkpt lat="48.32449" lon="7.24851">
        <ele>345.449055</ele>
        <time>2020-09-18T22:12:16.038Z</time>
      </trkpt>
      <trkpt lat="48.32443" lon="7.24894">
        <ele>344.892034</ele>
        <time>2020-09-18T22:12:19.166Z</time>
      </trkpt>
      <trkpt lat="48.32435" lon="7.25007">
        <ele>344.534297</ele>
        <time>2020-09-18T22:12:27.820Z</time>
      </trkpt>
      <trkpt lat="48.32433" lon="7.25023">
        <ele>344.627299</ele>
        <time>2020-09-18T22:12:29.103Z</time>
      </trkpt>
      <trkpt lat="48.32425" lon="7.25129">
        <ele>345.235235</ele>
        <time>2020-09-18T22:12:42.376Z</time>
      </trkpt>
      <trkpt lat="48.32413" lon="7.25176">
        <ele>345.522388</ele>
        <time>2020-09-18T22:12:51.336Z</time>
      </trkpt>
      <trkpt lat="48.32387" lon="7.2524">
        <ele>345.907221</ele>
        <time>2020-09-18T22:13:05.308Z</time>
      </trkpt>
      <trkpt lat="48.32376" lon="7.25273">
        <ele>346.079884</ele>
        <time>2020-09-18T22:13:11.371Z</time>
      </trkpt>
      <trkpt lat="48.32357" lon="7.25335">
        <ele>346.397106</ele>
        <time>2020-09-18T22:13:22.127Z</time>
      </trkpt>
      <trkpt lat="48.32347" lon="7.25386">
        <ele>346.640144</ele>
        <time>2020-09-18T22:13:28.471Z</time>
      </trkpt>
      <trkpt lat="48.32348" lon="7.25425">
        <ele>346.823931</ele>
        <time>2020-09-18T22:13:32.071Z</time>
      </trkpt>
      <trkpt lat="48.32354" lon="7.25454">
        <ele>346.964871</ele>
        <time>2020-09-18T22:13:34.769Z</time>
      </trkpt>
      <trkpt lat="48.32475" lon="7.25886">
        <ele>331.511341</ele>
        <time>2020-09-18T22:14:03.805Z</time>
      </trkpt>
      <trkpt lat="48.32501" lon="7.25945">
        <ele>329.081648</ele>
        <time>2020-09-18T22:14:08.273Z</time>
      </trkpt>
      <trkpt lat="48.32534" lon="7.26021">
        <ele>326.54859</ele>
        <time>2020-09-18T22:14:14.156Z</time>
      </trkpt>
      <trkpt lat="48.32657" lon="7.26306">
        <ele>317.735875</ele>
        <time>2020-09-18T22:14:36.368Z</time>
      </trkpt>
      <trkpt lat="48.32658" lon="7.26307">
        <ele>317.688418</ele>
        <time>2020-09-18T22:14:36.474Z</time>
      </trkpt>
      <trkpt lat="48.32678" lon="7.26355">
        <ele>316.297447</ele>
        <time>2020-09-18T22:14:40.162Z</time>
      </trkpt>
      <trkpt lat="48.32725" lon="7.26468">
        <ele>314.117597</ele>
        <time>2020-09-18T22:14:49.178Z</time>
      </trkpt>
      <trkpt lat="48.32749" lon="7.26523">
        <ele>313.500674</ele>
        <time>2020-09-18T22:14:54.015Z</time>
      </trkpt>
      <trkpt lat="48.32751" lon="7.26529">
        <ele>313.436455</ele>
        <time>2020-09-18T22:14:54.557Z</time>
      </trkpt>
      <trkpt lat="48.32777" lon="7.26587">
        <ele>312.780449</ele>
        <time>2020-09-18T22:15:00.920Z</time>
      </trkpt>
      <trkpt lat="48.32809" lon="7.26663">
        <ele>312.300807</ele>
        <time>2020-09-18T22:15:10.337Z</time>
      </trkpt>
      <trkpt lat="48.32818" lon="7.26683">
        <ele>312.321852</ele>
        <time>2020-09-18T22:15:13.357Z</time>
      </trkpt>
      <trkpt lat="48.3289" lon="7.2681">
        <ele>312.466138</ele>
        <time>2020-09-18T22:15:32.122Z</time>
      </trkpt>
      <trkpt lat="48.32914" lon="7.26858">
        <ele>312.3126</ele>
        <time>2020-09-18T22:15:37.419Z</time>
      </trkpt>
      <trkpt lat="48.32921" lon="7.26874">
        <ele>312.086993</ele>
        <time>2020-09-18T22:15:39.037Z</time>
      </trkpt>
      <trkpt lat="48.32927" lon="7.26891">
        <ele>311.862242</ele>
        <time>2020-09-18T22:15:40.573Z</time>
      </trkpt>
      <trkpt lat="48.32929" lon="7.26902">
        <ele>311.729264</ele>
        <time>2020-09-18T22:15:41.365Z</time>
      </trkpt>
      <trkpt lat="48.32935" lon="7.26951">
        <ele>311.143053</ele>
        <time>2020-09-18T22:15:45.056Z</time>
      </trkpt>
      <trkpt lat="48.32937" lon="7.26996">
        <ele>310.606412</ele>
        <time>2020-09-18T22:15:48.367Z</time>
      </trkpt>
      <trkpt lat="48.32933" lon="7.27079">
        <ele>309.635401</ele>
        <time>2020-09-18T22:15:54.178Z</time>
      </trkpt>
      <trkpt lat="48.32935" lon="7.27127">
        <ele>309.144104</ele>
        <time>2020-09-18T22:15:57.599Z</time>
      </trkpt>
      <trkpt lat="48.32938" lon="7.27137">
        <ele>309.063335</ele>
        <time>2020-09-18T22:15:58.264Z</time>
      </trkpt>
      <trkpt lat="48.32941" lon="7.27148">
        <ele>308.962865</ele>
        <time>2020-09-18T22:15:59.181Z</time>
      </trkpt>
      <trkpt lat="48.33011" lon="7.27338">
        <ele>307.220705</ele>
        <time>2020-09-18T22:16:16.611Z</time>
      </trkpt>
      <trkpt lat="48.33012" lon="7.27344">
        <ele>307.166662</ele>
        <time>2020-09-18T22:16:17.120Z</time>
      </trkpt>
      <trkpt lat="48.33014" lon="7.2735">
        <ele>307.161863</ele>
        <time>2020-09-18T22:16:17.752Z</time>
      </trkpt>
      <trkpt lat="48.33022" lon="7.27391">
        <ele>307.304055</ele>
        <time>2020-09-18T22:16:23.186Z</time>
      </trkpt>
      <trkpt lat="48.33033" lon="7.27461">
        <ele>307.547264</ele>
        <time>2020-09-18T22:16:31.386Z</time>
      </trkpt>
      <trkpt lat="48.3304" lon="7.27489">
        <ele>307.647368</ele>
        <time>2020-09-18T22:16:35.147Z</time>
      </trkpt>
      <trkpt lat="48.33038" lon="7.27492">
        <ele>307.66351</ele>
        <time>2020-09-18T22:16:36.008Z</time>
      </trkpt>
      <trkpt lat="48.3304" lon="7.27545">
        <ele>307.839972</ele>
        <time>2020-09-18T22:16:42.048Z</time>
      </trkpt>
      <trkpt lat="48.33058" lon="7.27643">
        <ele>308.008874</ele>
        <time>2020-09-18T22:16:54.045Z</time>
      </trkpt>
      <trkpt lat="48.33059" lon="7.27648">
        <ele>308.003322</ele>
        <time>2020-09-18T22:16:54.807Z</time>
      </trkpt>
      <trkpt lat="48.3308" lon="7.27765">
        <ele>307.858739</ele>
        <time>2020-09-18T22:17:06.641Z</time>
      </trkpt>
      <trkpt lat="48.33091" lon="7.27849">
        <ele>307.756683</ele>
        <time>2020-09-18T22:17:13.879Z</time>
      </trkpt>
      <trkpt lat="48.33087" lon="7.27932">
        <ele>307.359225</ele>
        <time>2020-09-18T22:17:20.759Z</time>
      </trkpt>
      <trkpt lat="48.33059" lon="7.2817">
        <ele>306.147351</ele>
        <time>2020-09-18T22:17:40.600Z</time>
      </trkpt>
      <trkpt lat="48.33033" lon="7.28243">
        <ele>306.200841</ele>
        <time>2020-09-18T22:17:48.222Z</time>
      </trkpt>
      <trkpt lat="48.33026" lon="7.28255">
        <ele>306.211661</ele>
        <time>2020-09-18T22:17:49.759Z</time>
      </trkpt>
      <trkpt lat="48.33013" lon="7.28271">
        <ele>306.227295</ele>
        <time>2020-09-18T22:17:52.268Z</time>
      </trkpt>
      <trkpt lat="48.32998" lon="7.28288">
        <ele>306.245546</ele>
        <time>2020-09-18T22:17:55.290Z</time>
      </trkpt>
      <trkpt lat="48.32995" lon="7.28293">
        <ele>306.250532</ele>
        <time>2020-09-18T22:17:55.949Z</time>
      </trkpt>
      <trkpt lat="48.32993" lon="7.28298">
        <ele>306.254141</ele>
        <time>2020-09-18T22:17:56.853Z</time>
      </trkpt>
      <trkpt lat="48.32987" lon="7.28329">
        <ele>306.274869</ele>
        <time>2020-09-18T22:18:00.392Z</time>
      </trkpt>
      <trkpt lat="48.32987" lon="7.28336">
        <ele>306.279792</ele>
        <time>2020-09-18T22:18:01.387Z</time>
      </trkpt>
      <trkpt lat="48.32991" lon="7.28345">
        <ele>306.286625</ele>
        <time>2020-09-18T22:18:02.547Z</time>
      </trkpt>
      <trkpt lat="48.33037" lon="7.28393">
        <ele>307.261347</ele>
        <time>2020-09-18T22:18:13.541Z</time>
      </trkpt>
      <trkpt lat="48.33073" lon="7.28452">
        <ele>308.487533</ele>
        <time>2020-09-18T22:18:25.981Z</time>
      </trkpt>
      <trkpt lat="48.33084" lon="7.28482">
        <ele>309.008535</ele>
        <time>2020-09-18T22:18:31.922Z</time>
      </trkpt>
      <trkpt lat="48.33116" lon="7.28633">
        <ele>311.763633</ele>
        <time>2020-09-18T22:19:01.366Z</time>
      </trkpt>
      <trkpt lat="48.3313" lon="7.28675">
        <ele>312.725139</ele>
        <time>2020-09-18T22:19:10.232Z</time>
      </trkpt>
      <trkpt lat="48.3318" lon="7.28829">
        <ele>316.076894</ele>
        <time>2020-09-18T22:19:41.167Z</time>
      </trkpt>
      <trkpt lat="48.33194" lon="7.28882">
        <ele>316.538862</ele>
        <time>2020-09-18T22:19:50.585Z</time>
      </trkpt>
      <trkpt lat="48.33199" lon="7.28968">
        <ele>317.239026</ele>
        <time>2020-09-18T22:20:02.759Z</time>
      </trkpt>
      <trkpt lat="48.3321" lon="7.29019">
        <ele>317.673577</ele>
        <time>2020-09-18T22:20:09.312Z</time>
      </trkpt>
      <trkpt lat="48.3326" lon="7.29128">
        <ele>317.110259</ele>
        <time>2020-09-18T22:20:20.925Z</time>
      </trkpt>
      <trkpt lat="48.333" lon="7.29198">
        <ele>315.761892</ele>
        <time>2020-09-18T22:20:27.297Z</time>
      </trkpt>
      <trkpt lat="48.33322" lon="7.29256">
        <ele>314.788997</ele>
        <time>2020-09-18T22:20:31.854Z</time>
      </trkpt>
      <trkpt lat="48.3333" lon="7.29286">
        <ele>314.312166</ele>
        <time>2020-09-18T22:20:34.045Z</time>
      </trkpt>
      <trkpt lat="48.33331" lon="7.29299">
        <ele>314.158966</ele>
        <time>2020-09-18T22:20:34.866Z</time>
      </trkpt>
      <trkpt lat="48.33331" lon="7.2931">
        <ele>314.052803</ele>
        <time>2020-09-18T22:20:35.703Z</time>
      </trkpt>
      <trkpt lat="48.33329" lon="7.29324">
        <ele>313.925352</ele>
        <time>2020-09-18T22:20:36.608Z</time>
      </trkpt>
      <trkpt lat="48.33326" lon="7.29327">
        <ele>313.866477</ele>
        <time>2020-09-18T22:20:37.037Z</time>
      </trkpt>
      <trkpt lat="48.33324" lon="7.29335">
        <ele>313.78427</ele>
        <time>2020-09-18T22:20:37.631Z</time>
      </trkpt>
      <trkpt lat="48.33325" lon="7.29341">
        <ele>313.728475</ele>
        <time>2020-09-18T22:20:38.026Z</time>
      </trkpt>
      <trkpt lat="48.33322" lon="7.29352">
        <ele>313.61665</ele>
        <time>2020-09-18T22:20:38.850Z</time>
      </trkpt>
      <trkpt lat="48.33317" lon="7.29367">
        <ele>313.459767</ele>
        <time>2020-09-18T22:20:40.012Z</time>
      </trkpt>
      <trkpt lat="48.33299" lon="7.29382">
        <ele>313.167068</ele>
        <time>2020-09-18T22:20:42.154Z</time>
      </trkpt>
      <trkpt lat="48.33277" lon="7.29397">
        <ele>312.836376</ele>
        <time>2020-09-18T22:20:44.710Z</time>
      </trkpt>
      <trkpt lat="48.33256" lon="7.29426">
        <ele>312.427935</ele>
        <time>2020-09-18T22:20:48.109Z</time>
      </trkpt>
      <trkpt lat="48.33243" lon="7.29476">
        <ele>311.936343</ele>
        <time>2020-09-18T22:20:53.224Z</time>
      </trkpt>
      <trkpt lat="48.33246" lon="7.29517">
        <ele>311.985226</ele>
        <time>2020-09-18T22:20:58.676Z</time>
      </trkpt>
      <trkpt lat="48.33259" lon="7.2958">
        <ele>313.270111</ele>
        <time>2020-09-18T22:21:09.482Z</time>
      </trkpt>
      <trkpt lat="48.33261" lon="7.2959">
        <ele>313.462757</ele>
        <time>2020-09-18T22:21:11.381Z</time>
      </trkpt>
      <trkpt lat="48.33277" lon="7.29673">
        <ele>315.153266</ele>
        <time>2020-09-18T22:21:28.430Z</time>
      </trkpt>
      <trkpt lat="48.33288" lon="7.29729">
        <ele>316.286434</ele>
        <time>2020-09-18T22:21:39.891Z</time>
      </trkpt>
      <trkpt lat="48.33308" lon="7.29838">
        <ele>318.018349</ele>
        <time>2020-09-18T22:22:02.720Z</time>
      </trkpt>
      <trkpt lat="48.33314" lon="7.29871">
        <ele>318.467234</ele>
        <time>2020-09-18T22:22:08.367Z</time>
      </trkpt>
      <trkpt lat="48.33318" lon="7.29933">
        <ele>319.303395</ele>
        <time>2020-09-18T22:22:17.947Z</time>
      </trkpt>
      <trkpt lat="48.33305" lon="7.30025">
        <ele>320.552643</ele>
        <time>2020-09-18T22:22:28.555Z</time>
      </trkpt>
      <trkpt lat="48.33297" lon="7.30049">
        <ele>320.491666</ele>
        <time>2020-09-18T22:22:31.550Z</time>
      </trkpt>
      <trkpt lat="48.33286" lon="7.30076">
        <ele>320.38554</ele>
        <time>2020-09-18T22:22:34.129Z</time>
      </trkpt>
      <trkpt lat="48.33256" lon="7.30133">
        <ele>320.14206</ele>
        <time>2020-09-18T22:22:40.396Z</time>
      </trkpt>
      <trkpt lat="48.33251" lon="7.30142">
        <ele>320.105448</ele>
        <time>2020-09-18T22:22:41.314Z</time>
      </trkpt>
      <trkpt lat="48.33235" lon="7.30164">
        <ele>319.994107</ele>
        <time>2020-09-18T22:22:44.003Z</time>
      </trkpt>
      <trkpt lat="48.33171" lon="7.30245">
        <ele>319.438888</ele>
        <time>2020-09-18T22:22:55.100Z</time>
      </trkpt>
      <trkpt lat="48.33154" lon="7.30265">
        <ele>319.183396</ele>
        <time>2020-09-18T22:22:57.726Z</time>
      </trkpt>
      <trkpt lat="48.33142" lon="7.30281">
        <ele>318.990655</ele>
        <time>2020-09-18T22:22:59.915Z</time>
      </trkpt>
      <trkpt lat="48.33108" lon="7.30337">
        <ele>318.392877</ele>
        <time>2020-09-18T22:23:05.966Z</time>
      </trkpt>
      <trkpt lat="48.33091" lon="7.30405">
        <ele>317.81559</ele>
        <time>2020-09-18T22:23:11.599Z</time>
      </trkpt>
      <trkpt lat="48.33088" lon="7.30437">
        <ele>317.560293</ele>
        <time>2020-09-18T22:23:13.989Z</time>
      </trkpt>
      <trkpt lat="48.33085" lon="7.30485">
        <ele>316.607855</ele>
        <time>2020-09-18T22:23:17.616Z</time>
      </trkpt>
      <trkpt lat="48.3308" lon="7.3062">
        <ele>313.824051</ele>
        <time>2020-09-18T22:23:27.022Z</time>
      </trkpt>
      <trkpt lat="48.33079" lon="7.30644">
        <ele>313.323543</ele>
        <time>2020-09-18T22:23:28.605Z</time>
      </trkpt>
      <trkpt lat="48.33069" lon="7.30703">
        <ele>312.066688</ele>
        <time>2020-09-18T22:23:32.483Z</time>
      </trkpt>
      <trkpt lat="48.33038" lon="7.30798">
        <ele>308.591051</ele>
        <time>2020-09-18T22:23:39.216Z</time>
      </trkpt>
      <trkpt lat="48.33032" lon="7.30837">
        <ele>307.271714</ele>
        <time>2020-09-18T22:23:41.674Z</time>
      </trkpt>
      <trkpt lat="48.3302" lon="7.30966">
        <ele>302.908635</ele>
        <time>2020-09-18T22:23:49.809Z</time>
      </trkpt>
      <trkpt lat="48.33014" lon="7.31013">
        <ele>301.453883</ele>
        <time>2020-09-18T22:23:52.733Z</time>
      </trkpt>
      <trkpt lat="48.3301" lon="7.31045">
        <ele>300.442324</ele>
        <time>2020-09-18T22:23:54.838Z</time>
      </trkpt>
      <trkpt lat="48.33008" lon="7.31061">
        <ele>299.964782</ele>
        <time>2020-09-18T22:23:55.772Z</time>
      </trkpt>
      <trkpt lat="48.32982" lon="7.31204">
        <ele>295.438368</ele>
        <time>2020-09-18T22:24:05.422Z</time>
      </trkpt>
      <trkpt lat="48.32977" lon="7.31225">
        <ele>294.73316</ele>
        <time>2020-09-18T22:24:06.850Z</time>
      </trkpt>
      <trkpt lat="48.32961" lon="7.31268">
        <ele>293.612398</ele>
        <time>2020-09-18T22:24:10.064Z</time>
      </trkpt>
      <trkpt lat="48.32958" lon="7.31276">
        <ele>293.40011</ele>
        <time>2020-09-18T22:24:10.736Z</time>
      </trkpt>
      <trkpt lat="48.32949" lon="7.31297">
        <ele>292.849827</ele>
        <time>2020-09-18T22:24:12.520Z</time>
      </trkpt>
      <trkpt lat="48.32945" lon="7.31307">
        <ele>292.602325</ele>
        <time>2020-09-18T22:24:13.250Z</time>
      </trkpt>
      <trkpt lat="48.32933" lon="7.31354">
        <ele>291.475678</ele>
        <time>2020-09-18T22:24:16.750Z</time>
      </trkpt>
      <trkpt lat="48.32926" lon="7.31377">
        <ele>290.909767</ele>
        <time>2020-09-18T22:24:18.477Z</time>
      </trkpt>
      <trkpt lat="48.32922" lon="7.31391">
        <ele>290.559674</ele>
        <time>2020-09-18T22:24:19.556Z</time>
      </trkpt>
      <trkpt lat="48.32893" lon="7.31494">
        <ele>287.800271</ele>
        <time>2020-09-18T22:24:27.129Z</time>
      </trkpt>
      <trkpt lat="48.32868" lon="7.31587">
        <ele>284.483069</ele>
        <time>2020-09-18T22:24:33.550Z</time>
      </trkpt>
      <trkpt lat="48.3286" lon="7.31629">
        <ele>283.076507</ele>
        <time>2020-09-18T22:24:36.231Z</time>
      </trkpt>
      <trkpt lat="48.32859" lon="7.31649">
        <ele>282.389827</ele>
        <time>2020-09-18T22:24:37.519Z</time>
      </trkpt>
      <trkpt lat="48.32859" lon="7.31701">
        <ele>280.695584</ele>
        <time>2020-09-18T22:24:40.702Z</time>
      </trkpt>
      <trkpt lat="48.32858" lon="7.31841">
        <ele>275.191907</ele>
        <time>2020-09-18T22:24:49.218Z</time>
      </trkpt>
      <trkpt lat="48.32852" lon="7.32098">
        <ele>265.445483</ele>
        <time>2020-09-18T22:25:04.905Z</time>
      </trkpt>
      <trkpt lat="48.32802" lon="7.32284">
        <ele>258.969215</ele>
        <time>2020-09-18T22:25:17.771Z</time>
      </trkpt>
      <trkpt lat="48.32799" lon="7.32296">
        <ele>258.621446</ele>
        <time>2020-09-18T22:25:18.630Z</time>
      </trkpt>
      <trkpt lat="48.32795" lon="7.32313">
        <ele>258.154408</ele>
        <time>2020-09-18T22:25:19.766Z</time>
      </trkpt>
      <trkpt lat="48.32753" lon="7.326">
        <ele>250.435424</ele>
        <time>2020-09-18T22:25:38.929Z</time>
      </trkpt>
      <trkpt lat="48.32692" lon="7.3295">
        <ele>242.343889</ele>
        <time>2020-09-18T22:26:02.910Z</time>
      </trkpt>
      <trkpt lat="48.3267" lon="7.33047">
        <ele>240.405714</ele>
        <time>2020-09-18T22:26:10.401Z</time>
      </trkpt>
      <trkpt lat="48.32655" lon="7.33075">
        <ele>240.228933</ele>
        <time>2020-09-18T22:26:13.186Z</time>
      </trkpt>
      <trkpt lat="48.32636" lon="7.33092">
        <ele>240.065923</ele>
        <time>2020-09-18T22:26:15.833Z</time>
      </trkpt>
      <trkpt lat="48.32549" lon="7.33104">
        <ele>239.422309</ele>
        <time>2020-09-18T22:26:27.376Z</time>
      </trkpt>
      <trkpt lat="48.32511" lon="7.3313">
        <ele>239.108492</ele>
        <time>2020-09-18T22:26:33.540Z</time>
      </trkpt>
      <trkpt lat="48.32492" lon="7.33163">
        <ele>239.004976</ele>
        <time>2020-09-18T22:26:37.726Z</time>
      </trkpt>
      <trkpt lat="48.32467" lon="7.33232">
        <ele>238.835092</ele>
        <time>2020-09-18T22:26:45.017Z</time>
      </trkpt>
      <trkpt lat="48.32437" lon="7.33334">
        <ele>238.594485</ele>
        <time>2020-09-18T22:26:55.238Z</time>
      </trkpt>
      <trkpt lat="48.32434" lon="7.33338">
        <ele>238.583966</ele>
        <time>2020-09-18T22:26:55.719Z</time>
      </trkpt>
      <trkpt lat="48.32461" lon="7.33405">
        <ele>238.269093</ele>
        <time>2020-09-18T22:27:02.606Z</time>
      </trkpt>
      <trkpt lat="48.32468" lon="7.33424">
        <ele>238.150853</ele>
        <time>2020-09-18T22:27:04.440Z</time>
      </trkpt>
      <trkpt lat="48.32478" lon="7.33445">
        <ele>238.009369</ele>
        <time>2020-09-18T22:27:06.695Z</time>
      </trkpt>
      <trkpt lat="48.32488" lon="7.33468">
        <ele>237.859167</ele>
        <time>2020-09-18T22:27:08.938Z</time>
      </trkpt>
      <trkpt lat="48.32498" lon="7.33487">
        <ele>237.728065</ele>
        <time>2020-09-18T22:27:11.005Z</time>
      </trkpt>
      <trkpt lat="48.32493" lon="7.3349">
        <ele>237.684189</ele>
        <time>2020-09-18T22:27:11.880Z</time>
      </trkpt>
      <trkpt lat="48.32484" lon="7.33502">
        <ele>237.584843</ele>
        <time>2020-09-18T22:27:13.962Z</time>
      </trkpt>
      <trkpt lat="48.32456" lon="7.336">
        <ele>236.993069</ele>
        <time>2020-09-18T22:27:26.231Z</time>
      </trkpt>
      <trkpt lat="48.32406" lon="7.33819">
        <ele>235.464612</ele>
        <time>2020-09-18T22:27:52.837Z</time>
      </trkpt>
      <trkpt lat="48.32375" lon="7.33933">
        <ele>234.846434</ele>
        <time>2020-09-18T22:28:07.323Z</time>
      </trkpt>
      <trkpt lat="48.32215" lon="7.34377">
        <ele>232.76038</ele>
        <time>2020-09-18T22:29:09.379Z</time>
      </trkpt>
      <trkpt lat="48.32195" lon="7.34433">
        <ele>232.403148</ele>
        <time>2020-09-18T22:29:16.851Z</time>
      </trkpt>
      <trkpt lat="48.32161" lon="7.34524">
        <ele>231.817082</ele>
        <time>2020-09-18T22:29:29.028Z</time>
      </trkpt>
      <trkpt lat="48.3213" lon="7.34603">
        <ele>231.399056</ele>
        <time>2020-09-18T22:29:39.755Z</time>
      </trkpt>
      <trkpt lat="48.32133" lon="7.34608">
        <ele>231.378091</ele>
        <time>2020-09-18T22:29:40.429Z</time>
      </trkpt>
      <trkpt lat="48.32138" lon="7.34615">
        <ele>231.34343</ele>
        <time>2020-09-18T22:29:41.659Z</time>
      </trkpt>
      <trkpt lat="48.3214" lon="7.34617">
        <ele>231.331243</ele>
        <time>2020-09-18T22:29:42.045Z</time>
      </trkpt>
      <trkpt lat="48.32132" lon="7.34647">
        <ele>231.224954</ele>
        <time>2020-09-18T22:29:46.189Z</time>
      </trkpt>
      <trkpt lat="48.32102" lon="7.34733">
        <ele>230.904571</ele>
        <time>2020-09-18T22:29:58.167Z</time>
      </trkpt>
      <trkpt lat="48.32098" lon="7.34734">
        <ele>230.886061</ele>
        <time>2020-09-18T22:29:58.940Z</time>
      </trkpt>
      <trkpt lat="48.32095" lon="7.34737">
        <ele>230.867478</ele>
        <time>2020-09-18T22:29:59.707Z</time>
      </trkpt>
      <trkpt lat="48.32093" lon="7.34742">
        <ele>230.844859</ele>
        <time>2020-09-18T22:30:00.489Z</time>
      </trkpt>
      <trkpt lat="48.32092" lon="7.34747">
        <ele>230.83023</ele>
        <time>2020-09-18T22:30:01.020Z</time>
      </trkpt>
      <trkpt lat="48.32093" lon="7.34751">
        <ele>230.815698</ele>
        <time>2020-09-18T22:30:01.598Z</time>
      </trkpt>
      <trkpt lat="48.32094" lon="7.34755">
        <ele>230.801101</ele>
        <time>2020-09-18T22:30:02.099Z</time>
      </trkpt>
      <trkpt lat="48.32079" lon="7.3479">
        <ele>230.661739</ele>
        <time>2020-09-18T22:30:07.570Z</time>
      </trkpt>
      <trkpt lat="48.32064" lon="7.34827">
        <ele>230.640303</ele>
        <time>2020-09-18T22:30:13.285Z</time>
      </trkpt>
      <trkpt lat="48.32063" lon="7.34831">
        <ele>230.640303</ele>
        <time>2020-09-18T22:30:13.851Z</time>
      </trkpt>
      <trkpt lat="48.32051" lon="7.34862">
        <ele>230.640303</ele>
        <time>2020-09-18T22:30:18.863Z</time>
      </trkpt>
      <trkpt lat="48.32021" lon="7.34927">
        <ele>230.640303</ele>
        <time>2020-09-18T22:30:29.942Z</time>
      </trkpt>
      <trkpt lat="48.32018" lon="7.34934">
        <ele>230.640303</ele>
        <time>2020-09-18T22:30:31.047Z</time>
      </trkpt>
      <trkpt lat="48.32018" lon="7.34934">
        <ele>230.640303</ele>
        <time>2020-09-18T22:30:31.049Z</time>
      </trkpt>
    </trkseg>
  </trk>
</gpx>